Observation data for Hackberry on 06/25/2019      Previous  Date       Current Mesonet Observations  Soil Data  Daily Summary Page  Observations in Plain Language
KHA3 250500Z 11007KT 24/21 A2992 RMK A01 T02440213  RH  083%=      5-min Rain = 0
KHA3 250501Z 12007KT 24/21 A2992 RMK A01 T02440214  RH  083%=      5-min Rain = 0
KHA3 250502Z 11007KT 24/22 A2992 RMK A01 T02440215  RH  084%=      5-min Rain = 0
KHA3 250503Z 11008KT 24/21 A2992 RMK A01 T02430214  RH  084%=      5-min Rain = 0
KHA3 250504Z 11007KT 24/21 A2992 RMK A01 T02430214  RH  084%=      5-min Rain = 0
KHA3 250505Z 11008KT 24/21 A2992 RMK A01 T02420214  RH  084%=      5-min Rain = 0
KHA3 250506Z 12008KT 24/22 A2992 RMK A01 T02420215  RH  085%=      5-min Rain = 0
KHA3 250507Z 12008KT 24/22 A2992 RMK A01 T02430216  RH  085%=      5-min Rain = 0
KHA3 250508Z 12007KT 24/22 A2992 RMK A01 T02430216  RH  085%=      5-min Rain = 0
KHA3 250509Z 13007KT 24/22 A2992 RMK A01 T02440217  RH  085%=      5-min Rain = 0
KHA3 250510Z 13007KT 24/22 A2992 RMK A01 T02440218  RH  085%=      5-min Rain = 0
KHA3 250511Z 13008KT 24/22 A2993 RMK A01 T02440218  RH  085%=      5-min Rain = 0
KHA3 250512Z 13009KT 25/22 A2993 RMK A01 T02450219  RH  086%=      5-min Rain = 0
KHA3 250513Z 13008KT 25/22 A2993 RMK A01 T02460220  RH  085%=      5-min Rain = 0
KHA3 250514Z 13008KT 25/22 A2992 RMK A01 T02460220  RH  085%=      5-min Rain = 0
KHA3 250515Z 13009KT 25/22 A2992 RMK A01 T02460220  RH  085%=      5-min Rain = 0
KHA3 250516Z 13009KT 25/22 A2992 RMK A01 T02460220  RH  085%=      5-min Rain = 0
KHA3 250517Z 12007KT 25/22 A2992 RMK A01 T02460220  RH  085%=      5-min Rain = 0
KHA3 250518Z 12007KT 25/22 A2992 RMK A01 T02460221  RH  086%=      5-min Rain = 0
KHA3 250519Z 12008KT 25/22 A2992 RMK A01 T02460221  RH  086%=      5-min Rain = 0
KHA3 250520Z 12008KT 25/22 A2992 RMK A01 T02460221  RH  086%=      5-min Rain = 0
KHA3 250521Z 12007KT 25/22 A2992 RMK A01 T02460221  RH  086%=      5-min Rain = 0
KHA3 250522Z 12008KT 25/22 A2992 RMK A01 T02460221  RH  086%=      5-min Rain = 0
KHA3 250523Z 13008KT 25/22 A2992 RMK A01 T02460221  RH  086%=      5-min Rain = 0
KHA3 250524Z 12008KT 25/22 A2992 RMK A01 T02460221  RH  086%=      5-min Rain = 0
KHA3 250525Z 13007KT 25/22 A2992 RMK A01 T02460221  RH  086%=      5-min Rain = 0
KHA3 250526Z 12008KT 25/22 A2992 RMK A01 T02470221  RH  086%=      5-min Rain = 0
KHA3 250527Z 13007KT 25/22 A2992 RMK A01 T02460221  RH  086%=      5-min Rain = 0
KHA3 250528Z 12007KT 25/22 A2991 RMK A01 T02460221  RH  086%=      5-min Rain = 0
KHA3 250529Z 12007KT 25/22 A2991 RMK A01 T02460221  RH  086%=      5-min Rain = 0
KHA3 250530Z 12008KT 25/22 A2991 RMK A01 T02460221  RH  086%=      5-min Rain = 0
KHA3 250531Z 11008KT 25/22 A2991 RMK A01 T02460221  RH  086%=      5-min Rain = 0
KHA3 250532Z 11007KT 25/22 A2991 RMK A01 T02460221  RH  086%=      5-min Rain = 0
KHA3 250533Z 12008KT 25/22 A2991 RMK A01 T02450221  RH  086%=      5-min Rain = 0
KHA3 250534Z 12008KT 25/22 A2991 RMK A01 T02460221  RH  086%=      5-min Rain = 0
KHA3 250535Z 11008KT 25/22 A2991 RMK A01 T02450221  RH  086%=      5-min Rain = 0
KHA3 250536Z 11009KT 25/22 A2991 RMK A01 T02450221  RH  086%=      5-min Rain = 0
KHA3 250537Z 11009KT 25/22 A2991 RMK A01 T02450221  RH  086%=      5-min Rain = 0
KHA3 250538Z 11009KT 25/22 A2991 RMK A01 T02460221  RH  086%=      5-min Rain = 0
KHA3 250539Z 11008KT 25/22 A2991 RMK A01 T02450221  RH  086%=      5-min Rain = 0
KHA3 250540Z 11009KT 25/22 A2991 RMK A01 T02450221  RH  086%=      5-min Rain = 0
KHA3 250541Z 11009KT 24/22 A299 RMK A01 T02440220  RH  086%=      5-min Rain = 0
KHA3 250542Z 10009KT 24/22 A299 RMK A01 T02440220  RH  086%=      5-min Rain = 0
KHA3 250543Z 11009KT 24/22 A299 RMK A01 T02440220  RH  086%=      5-min Rain = 0
KHA3 250544Z 11010KT 25/22 A299 RMK A01 T02450220  RH  086%=      5-min Rain = 0
KHA3 250545Z 11010KT 25/22 A299 RMK A01 T02450220  RH  086%=      5-min Rain = 0
KHA3 250546Z 11008KT 24/22 A299 RMK A01 T02440220  RH  086%=      5-min Rain = 0
KHA3 250547Z 11008KT 25/22 A299 RMK A01 T02450220  RH  086%=      5-min Rain = 0
KHA3 250548Z 11008KT 24/22 A299 RMK A01 T02440220  RH  086%=      5-min Rain = 0
KHA3 250549Z 11009KT 24/22 A299 RMK A01 T02440220  RH  087%=      5-min Rain = 0
KHA3 250550Z 11008KT 24/22 A299 RMK A01 T02440220  RH  086%=      5-min Rain = 0
KHA3 250551Z 11008KT 24/22 A299 RMK A01 T02440220  RH  086%=      5-min Rain = 0
KHA3 250552Z 11009KT 24/22 A299 RMK A01 T02430219  RH  087%=      5-min Rain = 0
KHA3 250553Z 11009KT 24/22 A299 RMK A01 T02430220  RH  087%=      5-min Rain = 0
KHA3 250554Z 11008KT 24/22 A299 RMK A01 T02430220  RH  087%=      5-min Rain = 0
KHA3 250555Z 11009KT 24/22 A299 RMK A01 T02420220  RH  087%=      5-min Rain = 0
KHA3 250556Z 11009KT 24/22 A299 RMK A01 T02420220  RH  087%=      5-min Rain = 0
KHA3 250557Z 11009KT 24/22 A299 RMK A01 T02420219  RH  087%=      5-min Rain = 0
KHA3 250558Z 12008KT 24/22 A299 RMK A01 T02420219  RH  087%=      5-min Rain = 0
KHA3 250559Z 11008KT 24/22 A299 RMK A01 T02420219  RH  087%=      5-min Rain = 0
KHA3 250600Z 11008KT 24/22 A299 RMK A01 T02420219  RH  087%=      5-min Rain = 0
KHA3 250601Z 11011KT 24/22 A299 RMK A01 T02410219  RH  087%=      5-min Rain = 0
KHA3 250602Z 11009KT 24/22 A299 RMK A01 T02410219  RH  087%=      5-min Rain = 0
KHA3 250603Z 11009KT 24/22 A299 RMK A01 T02410218  RH  087%=      5-min Rain = 0
KHA3 250604Z 12009KT 24/22 A299 RMK A01 T02410218  RH  087%=      5-min Rain = 0
KHA3 250605Z 12009KT 24/22 A299 RMK A01 T02410218  RH  087%=      5-min Rain = 0
KHA3 250606Z 12008KT 24/22 A299 RMK A01 T02410218  RH  087%=      5-min Rain = 0
KHA3 250607Z 11009KT 24/22 A299 RMK A01 T02410218  RH  087%=      5-min Rain = 0
KHA3 250608Z 12009KT 24/22 A299 RMK A01 T02410218  RH  087%=      5-min Rain = 0
KHA3 250609Z 12009KT 24/22 A299 RMK A01 T02410218  RH  087%=      5-min Rain = 0
KHA3 250610Z 11009KT 24/22 A299 RMK A01 T02410217  RH  087%=      5-min Rain = 0
KHA3 250611Z 11009KT 24/22 A299 RMK A01 T02410218  RH  087%=      5-min Rain = 0
KHA3 250612Z 11007KT 24/22 A299 RMK A01 T02400218  RH  087%=      5-min Rain = 0
KHA3 250613Z 11010KT 24/22 A299 RMK A01 T02400217  RH  087%=      5-min Rain = 0
KHA3 250614Z 11009KT 24/22 A299 RMK A01 T02400218  RH  088%=      5-min Rain = 0
KHA3 250615Z 12010KT 24/22 A299 RMK A01 T02390217  RH  088%=      5-min Rain = 0
KHA3 250616Z 12008KT 24/22 A299 RMK A01 T02390217  RH  088%=      5-min Rain = 0
KHA3 250617Z 11009KT 24/22 A299 RMK A01 T02380217  RH  088%=      5-min Rain = 0
KHA3 250618Z 12008KT 24/22 A299 RMK A01 T02380217  RH  088%=      5-min Rain = 0
KHA3 250619Z 12010KT 24/22 A299 RMK A01 T02380217  RH  088%=      5-min Rain = 0
KHA3 250620Z 11007KT 24/22 A299 RMK A01 T02390217  RH  088%=      5-min Rain = 0
KHA3 250621Z 11007KT 24/22 A299 RMK A01 T02390217  RH  087%=      5-min Rain = 0
KHA3 250622Z 12007KT 24/22 A299 RMK A01 T02380217  RH  088%=      5-min Rain = 0
KHA3 250623Z 12008KT 24/22 A299 RMK A01 T02370217  RH  088%=      5-min Rain = 0
KHA3 250624Z 12008KT 24/22 A299 RMK A01 T02370216  RH  088%=      5-min Rain = 0
KHA3 250625Z 11008KT 24/22 A299 RMK A01 T02370216  RH  088%=      5-min Rain = 0
KHA3 250626Z 12008KT 24/22 A299 RMK A01 T02370216  RH  088%=      5-min Rain = 0
KHA3 250627Z 11009KT 24/22 A299 RMK A01 T02370216  RH  088%=      5-min Rain = 0
KHA3 250628Z 12008KT 24/22 A299 RMK A01 T02370217  RH  088%=      5-min Rain = 0
KHA3 250629Z 12008KT 24/22 A299 RMK A01 T02370216  RH  088%=      5-min Rain = 0
KHA3 250630Z 12008KT 24/22 A299 RMK A01 T02370216  RH  088%=      5-min Rain = 0
KHA3 250631Z 12008KT 24/22 A299 RMK A01 T02370217  RH  088%=      5-min Rain = 0
KHA3 250632Z 12007KT 24/22 A299 RMK A01 T02370217  RH  088%=      5-min Rain = 0
KHA3 250633Z 12006KT 24/22 A299 RMK A01 T02370216  RH  088%=      5-min Rain = 0
KHA3 250634Z 12007KT 24/22 A299 RMK A01 T02370216  RH  088%=      5-min Rain = 0
KHA3 250635Z 12007KT 24/22 A299 RMK A01 T02360216  RH  089%=      5-min Rain = 0
KHA3 250636Z 12007KT 24/22 A299 RMK A01 T02360216  RH  089%=      5-min Rain = 0
KHA3 250637Z 12008KT 24/22 A299 RMK A01 T02350216  RH  089%=      5-min Rain = 0
KHA3 250638Z 12008KT 24/22 A299 RMK A01 T02350216  RH  089%=      5-min Rain = 0
KHA3 250639Z 12008KT 24/22 A299 RMK A01 T02350216  RH  089%=      5-min Rain = 0
KHA3 250640Z 12008KT 24/22 A299 RMK A01 T02350216  RH  089%=      5-min Rain = 0
KHA3 250641Z 12007KT 24/22 A299 RMK A01 T02350216  RH  089%=      5-min Rain = 0
KHA3 250642Z 12006KT 23/22 A2989 RMK A01 T02340216  RH  089%=      5-min Rain = 0
KHA3 250643Z 12006KT 23/22 A2989 RMK A01 T02340216  RH  090%=      5-min Rain = 0
KHA3 250644Z 12006KT 23/22 A2989 RMK A01 T02330215  RH  090%=      5-min Rain = 0
KHA3 250645Z 11006KT 23/22 A2989 RMK A01 T02320215  RH  090%=      5-min Rain = 0
KHA3 250646Z 11006KT 23/22 A2989 RMK A01 T02310215  RH  090%=      5-min Rain = 0
KHA3 250647Z 11006KT 23/22 A2989 RMK A01 T02310215  RH  090%=      5-min Rain = 0
KHA3 250648Z 12006KT 23/22 A2989 RMK A01 T02310215  RH  091%=      5-min Rain = 0
KHA3 250649Z 12006KT 23/22 A2989 RMK A01 T02310215  RH  091%=      5-min Rain = 0
KHA3 250650Z 12005KT 23/22 A2989 RMK A01 T02310215  RH  091%=      5-min Rain = 0
KHA3 250651Z 12005KT 23/22 A2989 RMK A01 T02310215  RH  091%=      5-min Rain = 0
KHA3 250652Z 12005KT 23/21 A2989 RMK A01 T02300214  RH  091%=      5-min Rain = 0
KHA3 250653Z 12005KT 23/21 A2989 RMK A01 T02290214  RH  091%=      5-min Rain = 0
KHA3 250654Z 12005KT 23/21 A2989 RMK A01 T02290214  RH  091%=      5-min Rain = 0
KHA3 250655Z 12005KT 23/21 A2989 RMK A01 T02290214  RH  092%=      5-min Rain = 0
KHA3 250656Z 12005KT 23/21 A2989 RMK A01 T02290214  RH  092%=      5-min Rain = 0
KHA3 250657Z 12005KT 23/21 A2989 RMK A01 T02280214  RH  092%=      5-min Rain = 0
KHA3 250658Z 12005KT 23/21 A2989 RMK A01 T02290214  RH  092%=      5-min Rain = 0
KHA3 250659Z 11005KT 23/21 A2989 RMK A01 T02290214  RH  091%=      5-min Rain = 0
KHA3 250700Z 11005KT 23/21 A299 RMK A01 T02290214  RH  091%=      5-min Rain = 0
KHA3 250701Z 12005KT 23/21 A299 RMK A01 T02280214  RH  092%=      5-min Rain = 0
KHA3 250702Z 11005KT 23/21 A299 RMK A01 T02280214  RH  092%=      5-min Rain = 0
KHA3 250703Z 11005KT 23/21 A299 RMK A01 T02270214  RH  092%=      5-min Rain = 0
KHA3 250704Z 10005KT 23/21 A2989 RMK A01 T02270213  RH  092%=      5-min Rain = 0
KHA3 250705Z 10005KT 23/21 A2989 RMK A01 T02270213  RH  092%=      5-min Rain = 0
KHA3 250706Z 10004KT 23/21 A2989 RMK A01 T02260213  RH  092%=      5-min Rain = 0
KHA3 250707Z 10005KT 23/21 A2989 RMK A01 T02250213  RH  092%=      5-min Rain = 0
KHA3 250708Z 10004KT 23/21 A299 RMK A01 T02250213  RH  093%=      5-min Rain = 0
KHA3 250709Z 11004KT 23/21 A299 RMK A01 T02250212  RH  093%=      5-min Rain = 0
KHA3 250710Z 11004KT 22/21 A299 RMK A01 T02240213  RH  093%=      5-min Rain = 0
KHA3 250711Z 12004KT 22/21 A299 RMK A01 T02240213  RH  093%=      5-min Rain = 0
KHA3 250712Z 11005KT 22/21 A299 RMK A01 T02240212  RH  093%=      5-min Rain = 0
KHA3 250713Z 11005KT 22/21 A299 RMK A01 T02230212  RH  093%=      5-min Rain = 0
KHA3 250714Z 11006KT 22/21 A299 RMK A01 T02230212  RH  093%=      5-min Rain = 0
KHA3 250715Z 10006KT 22/21 A2989 RMK A01 T02240213  RH  094%=      5-min Rain = 0
KHA3 250716Z 10006KT 22/21 A299 RMK A01 T02230213  RH  094%=      5-min Rain = 0
KHA3 250717Z 11005KT 22/21 A299 RMK A01 T02230212  RH  094%=      5-min Rain = 0
KHA3 250718Z 11005KT 22/21 A299 RMK A01 T02230212  RH  094%=      5-min Rain = 0
KHA3 250719Z 11005KT 22/21 A299 RMK A01 T02230213  RH  094%=      5-min Rain = 0
KHA3 250720Z 10006KT 22/21 A299 RMK A01 T02230212  RH  094%=      5-min Rain = 0
KHA3 250721Z 10006KT 22/21 A299 RMK A01 T02220212  RH  094%=      5-min Rain = 0
KHA3 250722Z 10006KT 22/21 A2989 RMK A01 T02230212  RH  094%=      5-min Rain = 0
KHA3 250723Z 10005KT 22/21 A299 RMK A01 T02220212  RH  094%=      5-min Rain = 0
KHA3 250724Z 10005KT 22/21 A299 RMK A01 T02220212  RH  094%=      5-min Rain = 0
KHA3 250725Z 09006KT 22/21 A299 RMK A01 T02220212  RH  094%=      5-min Rain = 0
KHA3 250726Z 09005KT 22/21 A299 RMK A01 T02220212  RH  094%=      5-min Rain = 0
KHA3 250727Z 10005KT 22/21 A299 RMK A01 T02210211  RH  094%=      5-min Rain = 0
KHA3 250728Z 10005KT 22/21 A299 RMK A01 T02200210  RH  094%=      5-min Rain = 0
KHA3 250729Z 10005KT 22/21 A299 RMK A01 T02200211  RH  095%=      5-min Rain = 0
KHA3 250730Z 10004KT 22/21 A299 RMK A01 T02200211  RH  095%=      5-min Rain = 0
KHA3 250731Z 10005KT 22/21 A299 RMK A01 T02210212  RH  095%=      5-min Rain = 0
KHA3 250732Z 10005KT 22/21 A299 RMK A01 T02200211  RH  095%=      5-min Rain = 0
KHA3 250733Z 10004KT 22/21 A299 RMK A01 T02200210  RH  094%=      5-min Rain = 0
KHA3 250734Z 10005KT 22/21 A299 RMK A01 T02190210  RH  094%=      5-min Rain = 0
KHA3 250735Z 10004KT 22/21 A299 RMK A01 T02190210  RH  095%=      5-min Rain = 0
KHA3 250736Z 10004KT 22/21 A2991 RMK A01 T02190210  RH  095%=      5-min Rain = 0
KHA3 250737Z 09004KT 22/21 A2991 RMK A01 T02190210  RH  095%=      5-min Rain = 0
KHA3 250738Z 09004KT 22/21 A2991 RMK A01 T02190211  RH  095%=      5-min Rain = 0
KHA3 250739Z 09005KT 22/21 A2991 RMK A01 T02180210  RH  095%=      5-min Rain = 0
KHA3 250740Z 09005KT 22/21 A2991 RMK A01 T02190210  RH  095%=      5-min Rain = 0
KHA3 250741Z 10005KT 22/21 A2991 RMK A01 T02180210  RH  095%=      5-min Rain = 0
KHA3 250742Z 10005KT 22/21 A2991 RMK A01 T02180210  RH  095%=      5-min Rain = 0
KHA3 250743Z 10004KT 22/21 A2991 RMK A01 T02180210  RH  095%=      5-min Rain = 0
KHA3 250744Z 11004KT 22/21 A2991 RMK A01 T02180210  RH  095%=      5-min Rain = 0
KHA3 250745Z 11003KT 22/21 A2991 RMK A01 T02180210  RH  095%=      5-min Rain = 0
KHA3 250746Z 11004KT 22/21 A2991 RMK A01 T02170210  RH  096%=      5-min Rain = 0
KHA3 250747Z 11004KT 22/21 A2991 RMK A01 T02180210  RH  096%=      5-min Rain = 0
KHA3 250748Z 11004KT 22/21 A2991 RMK A01 T02170210  RH  096%=      5-min Rain = 0
KHA3 250749Z 11004KT 22/21 A2991 RMK A01 T02170210  RH  096%=      5-min Rain = 0
KHA3 250750Z 11004KT 22/21 A2991 RMK A01 T02170209  RH  096%=      5-min Rain = 0
KHA3 250751Z 11004KT 22/21 A2991 RMK A01 T02160208  RH  095%=      5-min Rain = 0
KHA3 250752Z 11004KT 22/21 A2991 RMK A01 T02160208  RH  096%=      5-min Rain = 0
KHA3 250753Z 11004KT 22/21 A2991 RMK A01 T02150208  RH  096%=      5-min Rain = 0
KHA3 250754Z 11004KT 22/21 A2991 RMK A01 T02150208  RH  096%=      5-min Rain = 0
KHA3 250755Z 11004KT 22/21 A2991 RMK A01 T02150208  RH  096%=      5-min Rain = 0
KHA3 250756Z 12004KT 22/21 A2991 RMK A01 T02150208  RH  096%=      5-min Rain = 0
KHA3 250757Z 12004KT 21/21 A2991 RMK A01 T02140207  RH  096%=      5-min Rain = 0
KHA3 250758Z 11004KT 22/21 A2991 RMK A01 T02150208  RH  096%=      5-min Rain = 0
KHA3 250759Z 11005KT 21/21 A2991 RMK A01 T02140207  RH  096%=      5-min Rain = 0
KHA3 250800Z 12005KT 21/21 A2991 RMK A01 T02140207  RH  096%=      5-min Rain = 0
KHA3 250801Z 12004KT 21/21 A2991 RMK A01 T02130207  RH  096%=      5-min Rain = 0
KHA3 250802Z 12004KT 21/21 A2991 RMK A01 T02130207  RH  096%=      5-min Rain = 0
KHA3 250803Z 12004KT 21/21 A2991 RMK A01 T02130208  RH  096%=      5-min Rain = 0
KHA3 250804Z 12004KT 21/21 A2991 RMK A01 T02130207  RH  097%=      5-min Rain = 0
KHA3 250805Z 12005KT 21/21 A2991 RMK A01 T02130208  RH  097%=      5-min Rain = 0
KHA3 250806Z 12005KT 21/21 A2991 RMK A01 T02130208  RH  096%=      5-min Rain = 0
KHA3 250807Z 13004KT 21/21 A2991 RMK A01 T02130207  RH  096%=      5-min Rain = 0
KHA3 250808Z 13005KT 21/21 A2991 RMK A01 T02130208  RH  097%=      5-min Rain = 0
KHA3 250809Z 13005KT 21/21 A2991 RMK A01 T02140208  RH  097%=      5-min Rain = 0
KHA3 250810Z 13006KT 21/21 A2991 RMK A01 T02140209  RH  097%=      5-min Rain = 0
KHA3 250811Z 13007KT 21/21 A2991 RMK A01 T02140209  RH  097%=      5-min Rain = 0
KHA3 250812Z 14006KT 22/21 A2991 RMK A01 T02150209  RH  096%=      5-min Rain = 0
KHA3 250813Z 14005KT 22/21 A2991 RMK A01 T02170210  RH  096%=      5-min Rain = 0
KHA3 250814Z 14007KT 22/21 A2991 RMK A01 T02180210  RH  095%=      5-min Rain = 0
KHA3 250815Z 14007KT 22/21 A2991 RMK A01 T02190209  RH  094%=      5-min Rain = 0
KHA3 250816Z 14007KT 22/21 A2991 RMK A01 T02200208  RH  093%=      5-min Rain = 0
KHA3 250817Z 13007KT 22/21 A2991 RMK A01 T02210207  RH  092%=      5-min Rain = 0
KHA3 250818Z 13006KT 22/21 A2991 RMK A01 T02210207  RH  092%=      5-min Rain = 0
KHA3 250819Z 14006KT 22/21 A2991 RMK A01 T02220207  RH  092%=      5-min Rain = 0
KHA3 250820Z 13006KT 22/21 A2991 RMK A01 T02220208  RH  092%=      5-min Rain = 0
KHA3 250821Z 13006KT 22/21 A2991 RMK A01 T02210208  RH  092%=      5-min Rain = 0
KHA3 250822Z 13005KT 22/21 A2991 RMK A01 T02220208  RH  092%=      5-min Rain = 0
KHA3 250823Z 13006KT 22/21 A2991 RMK A01 T02210207  RH  092%=      5-min Rain = 0
KHA3 250824Z 14006KT 22/21 A2991 RMK A01 T02210208  RH  092%=      5-min Rain = 0
KHA3 250825Z 13006KT 22/21 A2991 RMK A01 T02200207  RH  092%=      5-min Rain = 0
KHA3 250826Z 13006KT 22/21 A2991 RMK A01 T02200207  RH  092%=      5-min Rain = 0
KHA3 250827Z 13006KT 22/21 A2991 RMK A01 T02190207  RH  092%=      5-min Rain = 0
KHA3 250828Z 13006KT 22/21 A2991 RMK A01 T02190207  RH  093%=      5-min Rain = 0
KHA3 250829Z 13005KT 22/21 A2991 RMK A01 T02190206  RH  093%=      5-min Rain = 0
KHA3 250830Z 13005KT 22/21 A2991 RMK A01 T02180206  RH  093%=      5-min Rain = 0
KHA3 250831Z 13006KT 22/21 A2991 RMK A01 T02180206  RH  093%=      5-min Rain = 0
KHA3 250832Z 13006KT 22/21 A2991 RMK A01 T02180206  RH  093%=      5-min Rain = 0
KHA3 250833Z 13006KT 22/21 A2991 RMK A01 T02180207  RH  093%=      5-min Rain = 0
KHA3 250834Z 13006KT 22/21 A2991 RMK A01 T02170206  RH  093%=      5-min Rain = 0
KHA3 250835Z 13006KT 22/21 A2991 RMK A01 T02170207  RH  094%=      5-min Rain = 0
KHA3 250836Z 13006KT 22/21 A2991 RMK A01 T02170207  RH  094%=      5-min Rain = 0
KHA3 250837Z 13005KT 22/21 A2991 RMK A01 T02170207  RH  094%=      5-min Rain = 0
KHA3 250838Z 13005KT 22/21 A2991 RMK A01 T02170207  RH  094%=      5-min Rain = 0
KHA3 250839Z 13006KT 22/21 A2991 RMK A01 T02170207  RH  094%=      5-min Rain = 0
KHA3 250840Z 14005KT 22/21 A2991 RMK A01 T02160206  RH  094%=      5-min Rain = 0
KHA3 250841Z 13006KT 22/21 A2991 RMK A01 T02160206  RH  094%=      5-min Rain = 0
KHA3 250842Z 13005KT 22/21 A2991 RMK A01 T02150206  RH  094%=      5-min Rain = 0
KHA3 250843Z 13006KT 22/21 A2991 RMK A01 T02160207  RH  095%=      5-min Rain = 0
KHA3 250844Z 14006KT 22/21 A2991 RMK A01 T02160206  RH  094%=      5-min Rain = 0
KHA3 250845Z 14006KT 22/21 A2991 RMK A01 T02160205  RH  094%=      5-min Rain = 0
KHA3 250846Z 14007KT 22/21 A2991 RMK A01 T02160205  RH  094%=      5-min Rain = 0
KHA3 250847Z 14006KT 22/21 A2991 RMK A01 T02160206  RH  094%=      5-min Rain = 0
KHA3 250848Z 13007KT 22/21 A299 RMK A01 T02160205  RH  094%=      5-min Rain = 0
KHA3 250849Z 14007KT 22/21 A299 RMK A01 T02150205  RH  094%=      5-min Rain = 0
KHA3 250850Z 14007KT 21/21 A2991 RMK A01 T02140205  RH  094%=      5-min Rain = 0
KHA3 250851Z 14007KT 21/20 A2991 RMK A01 T02140204  RH  094%=      5-min Rain = 0
KHA3 250852Z 15007KT 21/20 A2991 RMK A01 T02140203  RH  094%=      5-min Rain = 0
KHA3 250853Z 15006KT 21/20 A2991 RMK A01 T02130202  RH  094%=      5-min Rain = 0
KHA3 250854Z 15005KT 21/20 A2991 RMK A01 T02120201  RH  093%=      5-min Rain = 0
KHA3 250855Z 15006KT 21/20 A2991 RMK A01 T02110200  RH  093%=      5-min Rain = 0
KHA3 250856Z 15006KT 21/20 A2991 RMK A01 T02110200  RH  093%=      5-min Rain = 0
KHA3 250857Z 15007KT 21/20 A2991 RMK A01 T02100198  RH  093%=      5-min Rain = 0
KHA3 250858Z 14006KT 21/20 A2991 RMK A01 T02100197  RH  092%=      5-min Rain = 0
KHA3 250859Z 14006KT 21/20 A2991 RMK A01 T02100195  RH  091%=      5-min Rain = 0
KHA3 250900Z 15006KT 21/19 A2991 RMK A01 T02090194  RH  091%=      5-min Rain = 0
KHA3 250901Z 15005KT 21/19 A2991 RMK A01 T02090192  RH  090%=      5-min Rain = 0
KHA3 250902Z 15006KT 21/19 A2991 RMK A01 T02090191  RH  089%=      5-min Rain = 0
KHA3 250903Z 15006KT 21/19 A2991 RMK A01 T02090189  RH  088%=      5-min Rain = 0
KHA3 250904Z 15006KT 21/19 A2991 RMK A01 T02080187  RH  087%=      5-min Rain = 0
KHA3 250905Z 14007KT 21/19 A2991 RMK A01 T02080186  RH  087%=      5-min Rain = 0
KHA3 250906Z 14007KT 21/19 A2991 RMK A01 T02070185  RH  087%=      5-min Rain = 0
KHA3 250907Z 14007KT 21/18 A2991 RMK A01 T02070184  RH  087%=      5-min Rain = 0
KHA3 250908Z 14007KT 21/18 A2991 RMK A01 T02060183  RH  086%=      5-min Rain = 0
KHA3 250909Z 14007KT 21/18 A2991 RMK A01 T02060182  RH  086%=      5-min Rain = 0
KHA3 250910Z 14006KT 21/18 A2991 RMK A01 T02060181  RH  085%=      5-min Rain = 0
KHA3 250911Z 14005KT 21/18 A2991 RMK A01 T02060181  RH  085%=      5-min Rain = 0
KHA3 250912Z 14005KT 21/18 A2991 RMK A01 T02060180  RH  085%=      5-min Rain = 0
KHA3 250913Z 14005KT 21/18 A2991 RMK A01 T02070180  RH  085%=      5-min Rain = 0
KHA3 250914Z 14005KT 21/18 A2991 RMK A01 T02070180  RH  084%=      5-min Rain = 0
KHA3 250915Z 14006KT 21/18 A2991 RMK A01 T02080180  RH  084%=      5-min Rain = 0
KHA3 250916Z 14006KT 21/18 A2991 RMK A01 T02070180  RH  085%=      5-min Rain = 0
KHA3 250917Z 14006KT 21/18 A2991 RMK A01 T02060179  RH  085%=      5-min Rain = 0
KHA3 250918Z 13006KT 21/18 A2991 RMK A01 T02050179  RH  085%=      5-min Rain = 0
KHA3 250919Z 14006KT 21/18 A2991 RMK A01 T02050178  RH  084%=      5-min Rain = 0
KHA3 250920Z 14006KT 21/18 A2991 RMK A01 T02060177  RH  083%=      5-min Rain = 0
KHA3 250921Z 14007KT 21/18 A2991 RMK A01 T02070176  RH  083%=      5-min Rain = 0
KHA3 250922Z 14006KT 21/18 A2991 RMK A01 T02070176  RH  082%=      5-min Rain = 0
KHA3 250923Z 14007KT 21/18 A2991 RMK A01 T02070176  RH  082%=      5-min Rain = 0
KHA3 250924Z 14007KT 21/18 A2991 RMK A01 T02060176  RH  083%=      5-min Rain = 0
KHA3 250925Z 14007KT 21/18 A2991 RMK A01 T02050176  RH  083%=      5-min Rain = 0
KHA3 250926Z 14007KT 20/18 A2991 RMK A01 T02040176  RH  084%=      5-min Rain = 0
KHA3 250927Z 14007KT 20/18 A2991 RMK A01 T02030175  RH  084%=      5-min Rain = 0
KHA3 250928Z 14007KT 20/17 A2991 RMK A01 T02020174  RH  084%=      5-min Rain = 0
KHA3 250929Z 15007KT 20/17 A2991 RMK A01 T02010173  RH  084%=      5-min Rain = 0
KHA3 250930Z 15007KT 20/17 A2991 RMK A01 T02010173  RH  084%=      5-min Rain = 0
KHA3 250931Z 15006KT 20/17 A2991 RMK A01 T02000172  RH  084%=      5-min Rain = 0
KHA3 250932Z 15006KT 20/17 A2991 RMK A01 T01990172  RH  084%=      5-min Rain = 0
KHA3 250933Z 16007KT 20/17 A2991 RMK A01 T01980170  RH  084%=      5-min Rain = 0
KHA3 250934Z 16006KT 20/17 A2991 RMK A01 T01970169  RH  084%=      5-min Rain = 0
KHA3 250935Z 16006KT 20/17 A2991 RMK A01 T01970169  RH  084%=      5-min Rain = 0
KHA3 250936Z 16006KT 20/17 A2991 RMK A01 T01970168  RH  083%=      5-min Rain = 0
KHA3 250937Z 16006KT 20/17 A2991 RMK A01 T01970168  RH  083%=      5-min Rain = 0
KHA3 250938Z 16006KT 20/17 A2991 RMK A01 T01960168  RH  084%=      5-min Rain = 0
KHA3 250939Z 16006KT 20/17 A2992 RMK A01 T01960167  RH  084%=      5-min Rain = 0
KHA3 250940Z 16006KT 20/17 A2992 RMK A01 T01950167  RH  083%=      5-min Rain = 0
KHA3 250941Z 16006KT 20/17 A2992 RMK A01 T01950166  RH  083%=      5-min Rain = 0
KHA3 250942Z 16006KT 20/17 A2992 RMK A01 T01950166  RH  083%=      5-min Rain = 0
KHA3 250943Z 16005KT 20/17 A2992 RMK A01 T01950166  RH  084%=      5-min Rain = 0
KHA3 250944Z 16005KT 19/17 A2992 RMK A01 T01940166  RH  084%=      5-min Rain = 0
KHA3 250945Z 16005KT 19/17 A2992 RMK A01 T01930166  RH  084%=      5-min Rain = 0
KHA3 250946Z 16004KT 19/17 A2992 RMK A01 T01930166  RH  084%=      5-min Rain = 0
KHA3 250947Z 15004KT 19/17 A2992 RMK A01 T01920166  RH  085%=      5-min Rain = 0
KHA3 250948Z 16004KT 19/17 A2992 RMK A01 T01920166  RH  085%=      5-min Rain = 0
KHA3 250949Z 16004KT 19/17 A2992 RMK A01 T01910166  RH  085%=      5-min Rain = 0
KHA3 250950Z 16004KT 19/17 A2992 RMK A01 T01920166  RH  085%=      5-min Rain = 0
KHA3 250951Z 16003KT 19/17 A2992 RMK A01 T01910166  RH  085%=      5-min Rain = 0
KHA3 250952Z 17003KT 19/17 A2992 RMK A01 T01910166  RH  086%=      5-min Rain = 0
KHA3 250953Z 17002KT 19/17 A2992 RMK A01 T01910166  RH  086%=      5-min Rain = 0
KHA3 250954Z 17001KT 19/17 A2992 RMK A01 T01910166  RH  085%=      5-min Rain = 0
KHA3 250955Z 16002KT 19/17 A2992 RMK A01 T01910166  RH  085%=      5-min Rain = 0
KHA3 250956Z 17001KT 19/17 A2992 RMK A01 T01910165  RH  085%=      5-min Rain = 0
KHA3 250957Z 16002KT 19/17 A2992 RMK A01 T01910165  RH  085%=      5-min Rain = 0
KHA3 250958Z 14002KT 19/17 A2992 RMK A01 T01910165  RH  085%=      5-min Rain = 0
KHA3 250959Z 14002KT 19/17 A2992 RMK A01 T01910165  RH  085%=      5-min Rain = 0
KHA3 251000Z 14003KT 19/17 A2992 RMK A01 T01910165  RH  085%=      5-min Rain = 0
KHA3 251001Z 15003KT 19/17 A2992 RMK A01 T01920165  RH  084%=      5-min Rain = 0
KHA3 251002Z 15003KT 19/17 A2992 RMK A01 T01920165  RH  084%=      5-min Rain = 0
KHA3 251003Z 16003KT 19/16 A2992 RMK A01 T01930164  RH  083%=      5-min Rain = 0
KHA3 251004Z 17003KT 19/16 A2992 RMK A01 T01930164  RH  083%=      5-min Rain = 0
KHA3 251005Z 17003KT 19/16 A2992 RMK A01 T01940164  RH  083%=      5-min Rain = 0
KHA3 251006Z 17002KT 19/17 A2992 RMK A01 T01940165  RH  083%=      5-min Rain = 0
KHA3 251007Z 19002KT 19/17 A2992 RMK A01 T01940165  RH  083%=      5-min Rain = 0
KHA3 251008Z 21002KT 20/17 A2992 RMK A01 T01950166  RH  083%=      5-min Rain = 0
KHA3 251009Z 23002KT 19/17 A2992 RMK A01 T01940167  RH  084%=      5-min Rain = 0
KHA3 251010Z 23002KT 19/17 A2992 RMK A01 T01940166  RH  084%=      5-min Rain = 0
KHA3 251011Z 22003KT 19/17 A2993 RMK A01 T01930165  RH  084%=      5-min Rain = 0
KHA3 251012Z 22003KT 19/17 A2993 RMK A01 T01940165  RH  083%=      5-min Rain = 0
KHA3 251013Z 21003KT 19/17 A2993 RMK A01 T01940165  RH  083%=      5-min Rain = 0
KHA3 251014Z 23003KT 19/17 A2993 RMK A01 T01940165  RH  083%=      5-min Rain = 0
KHA3 251015Z 24003KT 19/17 A2993 RMK A01 T01940165  RH  083%=      5-min Rain = 0
KHA3 251016Z 24003KT 20/17 A2993 RMK A01 T01950166  RH  083%=      5-min Rain = 0
KHA3 251017Z 25003KT 20/17 A2992 RMK A01 T01950166  RH  083%=      5-min Rain = 0
KHA3 251018Z 26003KT 19/17 A2992 RMK A01 T01940167  RH  084%=      5-min Rain = 0
KHA3 251019Z 25003KT 19/17 A2993 RMK A01 T01930167  RH  085%=      5-min Rain = 0
KHA3 251020Z 25003KT 19/17 A2993 RMK A01 T01920169  RH  086%=      5-min Rain = 0
KHA3 251021Z 25003KT 19/17 A2993 RMK A01 T01910169  RH  087%=      5-min Rain = 0
KHA3 251022Z 26003KT 19/17 A2993 RMK A01 T01910170  RH  088%=      5-min Rain = 0
KHA3 251023Z 26003KT 19/17 A2993 RMK A01 T01900170  RH  088%=      5-min Rain = 0
KHA3 251024Z 27003KT 19/17 A2993 RMK A01 T01880170  RH  089%=      5-min Rain = 0
KHA3 251025Z 27003KT 19/17 A2993 RMK A01 T01870170  RH  089%=      5-min Rain = 0
KHA3 251026Z 27003KT 19/17 A2993 RMK A01 T01870170  RH  090%=      5-min Rain = 0
KHA3 251027Z 26003KT 19/17 A2993 RMK A01 T01860170  RH  090%=      5-min Rain = 0
KHA3 251028Z 26003KT 19/17 A2993 RMK A01 T01860169  RH  090%=      5-min Rain = 0
KHA3 251029Z 26003KT 19/17 A2993 RMK A01 T01860169  RH  090%=      5-min Rain = 0
KHA3 251030Z 26003KT 19/17 A2993 RMK A01 T01860169  RH  090%=      5-min Rain = 0
KHA3 251031Z 26003KT 19/17 A2993 RMK A01 T01850168  RH  090%=      5-min Rain = 0
KHA3 251032Z 26004KT 19/17 A2993 RMK A01 T01850168  RH  090%=      5-min Rain = 0
KHA3 251033Z 26004KT 19/17 A2993 RMK A01 T01850168  RH  089%=      5-min Rain = 0
KHA3 251034Z 26004KT 19/17 A2993 RMK A01 T01850168  RH  089%=      5-min Rain = 0
KHA3 251035Z 27004KT 19/17 A2993 RMK A01 T01850167  RH  089%=      5-min Rain = 0
KHA3 251036Z 27004KT 19/17 A2993 RMK A01 T01850167  RH  089%=      5-min Rain = 0
KHA3 251037Z 27004KT 19/17 A2993 RMK A01 T01850167  RH  089%=      5-min Rain = 0
KHA3 251038Z 26004KT 19/17 A2993 RMK A01 T01850166  RH  089%=      5-min Rain = 0
KHA3 251039Z 27004KT 19/17 A2993 RMK A01 T01850166  RH  088%=      5-min Rain = 0
KHA3 251040Z 28004KT 19/17 A2993 RMK A01 T01850166  RH  088%=      5-min Rain = 0
KHA3 251041Z 28004KT 19/17 A2993 RMK A01 T01850166  RH  088%=      5-min Rain = 0
KHA3 251042Z 27004KT 19/17 A2993 RMK A01 T01860166  RH  088%=      5-min Rain = 0
KHA3 251043Z 26004KT 19/17 A2993 RMK A01 T01850166  RH  089%=      5-min Rain = 0
KHA3 251044Z 25004KT 19/17 A2993 RMK A01 T01850166  RH  089%=      5-min Rain = 0
KHA3 251045Z 25004KT 18/17 A2994 RMK A01 T01840166  RH  089%=      5-min Rain = 0
KHA3 251046Z 25004KT 18/17 A2994 RMK A01 T01840166  RH  089%=      5-min Rain = 0
KHA3 251047Z 25003KT 18/17 A2993 RMK A01 T01840166  RH  089%=      5-min Rain = 0
KHA3 251048Z 25004KT 19/17 A2993 RMK A01 T01850166  RH  089%=      5-min Rain = 0
KHA3 251049Z 25003KT 19/17 A2993 RMK A01 T01850167  RH  089%=      5-min Rain = 0
KHA3 251050Z 24003KT 19/17 A2993 RMK A01 T01850166  RH  088%=      5-min Rain = 0
KHA3 251051Z 24004KT 19/17 A2994 RMK A01 T01860167  RH  088%=      5-min Rain = 0
KHA3 251052Z 24004KT 19/17 A2994 RMK A01 T01860166  RH  088%=      5-min Rain = 0
KHA3 251053Z 25004KT 19/17 A2994 RMK A01 T01860167  RH  089%=      5-min Rain = 0
KHA3 251054Z 25003KT 19/17 A2993 RMK A01 T01860167  RH  089%=      5-min Rain = 0
KHA3 251055Z 24003KT 19/17 A2993 RMK A01 T01860167  RH  089%=      5-min Rain = 0
KHA3 251056Z 24003KT 19/17 A2993 RMK A01 T01860168  RH  089%=      5-min Rain = 0
KHA3 251057Z 24003KT 19/17 A2993 RMK A01 T01860167  RH  089%=      5-min Rain = 0
KHA3 251058Z 24003KT 19/17 A2993 RMK A01 T01860169  RH  090%=      5-min Rain = 0
KHA3 251059Z 24003KT 19/17 A2993 RMK A01 T01860169  RH  090%=      5-min Rain = 0
KHA3 251100Z 24003KT 19/17 A2993 RMK A01 T01870169  RH  089%=      5-min Rain = 0
KHA3 251101Z 24003KT 19/17 A2993 RMK A01 T01880170  RH  089%=      5-min Rain = 0
KHA3 251102Z 24003KT 19/17 A2993 RMK A01 T01880169  RH  089%=      5-min Rain = 0
KHA3 251103Z 24004KT 19/17 A2994 RMK A01 T01870167  RH  088%=      5-min Rain = 0
KHA3 251104Z 24003KT 19/17 A2993 RMK A01 T01850166  RH  088%=      5-min Rain = 0
KHA3 251105Z 25004KT 18/17 A2993 RMK A01 T01840166  RH  089%=      5-min Rain = 0
KHA3 251106Z 25004KT 18/17 A2993 RMK A01 T01820165  RH  090%=      5-min Rain = 0
KHA3 251107Z 25004KT 18/17 A2993 RMK A01 T01810165  RH  090%=      5-min Rain = 0
KHA3 251108Z 24004KT 18/16 A2993 RMK A01 T01810164  RH  090%=      5-min Rain = 0
KHA3 251109Z 24004KT 18/17 A2993 RMK A01 T01800165  RH  091%=      5-min Rain = 0
KHA3 251110Z 24004KT 18/17 A2993 RMK A01 T01800165  RH  091%=      5-min Rain = 0
KHA3 251111Z 24004KT 18/17 A2993 RMK A01 T01790165  RH  091%=      5-min Rain = 0
KHA3 251112Z 24004KT 18/17 A2993 RMK A01 T01790165  RH  091%=      5-min Rain = 0
KHA3 251113Z 24004KT 18/17 A2993 RMK A01 T01780165  RH  092%=      5-min Rain = 0
KHA3 251114Z 24004KT 18/17 A2994 RMK A01 T01790166  RH  092%=      5-min Rain = 0
KHA3 251115Z 23004KT 18/17 A2994 RMK A01 T01790166  RH  092%=      5-min Rain = 0
KHA3 251116Z 24003KT 18/17 A2994 RMK A01 T01800166  RH  092%=      5-min Rain = 0
KHA3 251117Z 24004KT 18/17 A2994 RMK A01 T01800165  RH  091%=      5-min Rain = 0
KHA3 251118Z 24003KT 18/17 A2994 RMK A01 T01790165  RH  091%=      5-min Rain = 0
KHA3 251119Z 24003KT 18/17 A2994 RMK A01 T01790165  RH  092%=      5-min Rain = 0
KHA3 251120Z 24004KT 18/17 A2994 RMK A01 T01790165  RH  092%=      5-min Rain = 0
KHA3 251121Z 24003KT 18/17 A2994 RMK A01 T01780165  RH  092%=      5-min Rain = 0
KHA3 251122Z 24003KT 18/17 A2994 RMK A01 T01780165  RH  092%=      5-min Rain = 0
KHA3 251123Z 24003KT 18/17 A2994 RMK A01 T01780166  RH  093%=      5-min Rain = 0
KHA3 251124Z 24003KT 18/17 A2994 RMK A01 T01780166  RH  093%=      5-min Rain = 0
KHA3 251125Z 24002KT 18/17 A2994 RMK A01 T01780166  RH  092%=      5-min Rain = 0
KHA3 251126Z 23002KT 18/17 A2994 RMK A01 T01790167  RH  092%=      5-min Rain = 0
KHA3 251127Z 23002KT 18/17 A2994 RMK A01 T01800166  RH  092%=      5-min Rain = 0
KHA3 251128Z 23002KT 18/17 A2994 RMK A01 T01810166  RH  091%=      5-min Rain = 0
KHA3 251129Z 23003KT 18/17 A2995 RMK A01 T01810166  RH  091%=      5-min Rain = 0
KHA3 251130Z 22003KT 18/17 A2995 RMK A01 T01820166  RH  090%=      5-min Rain = 0
KHA3 251131Z 22003KT 18/17 A2995 RMK A01 T01820166  RH  090%=      5-min Rain = 0
KHA3 251132Z 23003KT 18/17 A2995 RMK A01 T01820165  RH  090%=      5-min Rain = 0
KHA3 251133Z 23003KT 18/17 A2995 RMK A01 T01820165  RH  090%=      5-min Rain = 0
KHA3 251134Z 23003KT 18/17 A2995 RMK A01 T01810165  RH  090%=      5-min Rain = 0
KHA3 251135Z 23003KT 18/17 A2995 RMK A01 T01820166  RH  090%=      5-min Rain = 0
KHA3 251136Z 24003KT 18/17 A2995 RMK A01 T01810165  RH  090%=      5-min Rain = 0
KHA3 251137Z 24003KT 18/17 A2995 RMK A01 T01820165  RH  090%=      5-min Rain = 0
KHA3 251138Z 23003KT 18/17 A2995 RMK A01 T01830166  RH  090%=      5-min Rain = 0
KHA3 251139Z 23003KT 18/17 A2995 RMK A01 T01830166  RH  090%=      5-min Rain = 0
KHA3 251140Z 23004KT 18/17 A2995 RMK A01 T01830166  RH  089%=      5-min Rain = 0
KHA3 251141Z 23004KT 18/17 A2995 RMK A01 T01830165  RH  089%=      5-min Rain = 0
KHA3 251142Z 22004KT 18/17 A2995 RMK A01 T01830165  RH  089%=      5-min Rain = 0
KHA3 251143Z 22004KT 18/17 A2995 RMK A01 T01820165  RH  089%=      5-min Rain = 0
KHA3 251144Z 22004KT 18/17 A2995 RMK A01 T01820165  RH  090%=      5-min Rain = 0
KHA3 251145Z 23004KT 18/17 A2995 RMK A01 T01820165  RH  090%=      5-min Rain = 0
KHA3 251146Z 23004KT 18/17 A2995 RMK A01 T01820165  RH  090%=      5-min Rain = 0
KHA3 251147Z 24004KT 18/17 A2996 RMK A01 T01820165  RH  090%=      5-min Rain = 0
KHA3 251148Z 24004KT 18/16 A2996 RMK A01 T01810164  RH  090%=      5-min Rain = 0
KHA3 251149Z 24004KT 18/17 A2996 RMK A01 T01820165  RH  090%=      5-min Rain = 0
KHA3 251150Z 24004KT 18/17 A2996 RMK A01 T01820165  RH  089%=      5-min Rain = 0
KHA3 251151Z 23004KT 18/17 A2996 RMK A01 T01830166  RH  090%=      5-min Rain = 0
KHA3 251152Z 23004KT 18/17 A2996 RMK A01 T01840167  RH  090%=      5-min Rain = 0
KHA3 251153Z 22004KT 19/17 A2996 RMK A01 T01850168  RH  090%=      5-min Rain = 0
KHA3 251154Z 23004KT 19/17 A2996 RMK A01 T01850167  RH  089%=      5-min Rain = 0
KHA3 251155Z 23003KT 19/17 A2996 RMK A01 T01850166  RH  089%=      5-min Rain = 0
KHA3 251156Z 23003KT 18/17 A2996 RMK A01 T01840166  RH  089%=      5-min Rain = 0
KHA3 251157Z 22003KT 19/17 A2996 RMK A01 T01850167  RH  089%=      5-min Rain = 0
KHA3 251158Z 21003KT 19/17 A2996 RMK A01 T01850167  RH  090%=      5-min Rain = 0
KHA3 251159Z 22003KT 19/17 A2996 RMK A01 T01850168  RH  089%=      5-min Rain = 0
KHA3 251200Z 23004KT 19/17 A2996 RMK A01 T01860168  RH  089%=      5-min Rain = 0
KHA3 251201Z 23003KT 19/17 A2996 RMK A01 T01870168  RH  089%=      5-min Rain = 0
KHA3 251202Z 23003KT 19/17 A2996 RMK A01 T01870168  RH  089%=      5-min Rain = 0
KHA3 251203Z 23003KT 19/17 A2996 RMK A01 T01880169  RH  088%=      5-min Rain = 0
KHA3 251204Z 23003KT 19/17 A2996 RMK A01 T01890169  RH  088%=      5-min Rain = 0
KHA3 251205Z 23003KT 19/17 A2996 RMK A01 T01890169  RH  088%=      5-min Rain = 0
KHA3 251206Z 23003KT 19/17 A2996 RMK A01 T01890169  RH  088%=      5-min Rain = 0
KHA3 251207Z 23003KT 19/17 A2997 RMK A01 T01890169  RH  088%=      5-min Rain = 0
KHA3 251208Z 22003KT 19/17 A2997 RMK A01 T01890170  RH  088%=      5-min Rain = 0
KHA3 251209Z 23003KT 19/17 A2997 RMK A01 T01900170  RH  088%=      5-min Rain = 0
KHA3 251210Z 23003KT 19/17 A2997 RMK A01 T01900170  RH  088%=      5-min Rain = 0
KHA3 251211Z 23003KT 19/17 A2997 RMK A01 T01910171  RH  088%=      5-min Rain = 0
KHA3 251212Z 23003KT 19/17 A2997 RMK A01 T01920172  RH  088%=      5-min Rain = 0
KHA3 251213Z 24002KT 19/17 A2997 RMK A01 T01920172  RH  088%=      5-min Rain = 0
KHA3 251214Z 24001KT 19/17 A2997 RMK A01 T01930173  RH  088%=      5-min Rain = 0
KHA3 251215Z 24002KT 19/17 A2997 RMK A01 T01940174  RH  088%=      5-min Rain = 0
KHA3 251216Z 24002KT 20/17 A2997 RMK A01 T01950174  RH  088%=      5-min Rain = 0
KHA3 251217Z 24002KT 20/17 A2997 RMK A01 T01950174  RH  087%=      5-min Rain = 0
KHA3 251218Z 22002KT 20/17 A2997 RMK A01 T01960174  RH  087%=      5-min Rain = 0
KHA3 251219Z 22002KT 20/18 A2997 RMK A01 T01970175  RH  087%=      5-min Rain = 0
KHA3 251220Z 21003KT 20/18 A2997 RMK A01 T01980177  RH  088%=      5-min Rain = 0
KHA3 251221Z 21003KT 20/18 A2997 RMK A01 T01980176  RH  087%=      5-min Rain = 0
KHA3 251222Z 22003KT 20/18 A2997 RMK A01 T01980175  RH  087%=      5-min Rain = 0
KHA3 251223Z 23003KT 20/18 A2997 RMK A01 T01990176  RH  087%=      5-min Rain = 0
KHA3 251224Z 24003KT 20/18 A2997 RMK A01 T01990175  RH  086%=      5-min Rain = 0
KHA3 251225Z 23003KT 20/18 A2998 RMK A01 T01990176  RH  087%=      5-min Rain = 0
KHA3 251226Z 24003KT 20/18 A2998 RMK A01 T01990177  RH  087%=      5-min Rain = 0
KHA3 251227Z 24002KT 20/18 A2998 RMK A01 T01990176  RH  086%=      5-min Rain = 0
KHA3 251228Z 24003KT 20/18 A2998 RMK A01 T02000175  RH  086%=      5-min Rain = 0
KHA3 251229Z 25002KT 20/18 A2998 RMK A01 T02000175  RH  085%=      5-min Rain = 0
KHA3 251230Z 25002KT 20/18 A2998 RMK A01 T02020177  RH  086%=      5-min Rain = 0
KHA3 251231Z 24001KT 20/18 A2998 RMK A01 T02020176  RH  085%=      5-min Rain = 0
KHA3 251232Z 25001KT 20/18 A2998 RMK A01 T02030176  RH  084%=      5-min Rain = 0
KHA3 251233Z 25001KT 20/18 A2998 RMK A01 T02030176  RH  084%=      5-min Rain = 0
KHA3 251234Z 22001KT 20/18 A2998 RMK A01 T02040176  RH  084%=      5-min Rain = 0
KHA3 251235Z 21001KT 21/18 A2998 RMK A01 T02050177  RH  084%=      5-min Rain = 0
KHA3 251236Z 19001KT 21/18 A2998 RMK A01 T02060178  RH  084%=      5-min Rain = 0
KHA3 251237Z 16001KT 21/18 A2998 RMK A01 T02070179  RH  084%=      5-min Rain = 0
KHA3 251238Z 15002KT 21/18 A2998 RMK A01 T02080181  RH  085%=      5-min Rain = 0
KHA3 251239Z 14003KT 21/18 A2998 RMK A01 T02080179  RH  084%=      5-min Rain = 0
KHA3 251240Z 13003KT 21/18 A2998 RMK A01 T02080181  RH  084%=      5-min Rain = 0
KHA3 251241Z 12003KT 21/18 A2998 RMK A01 T02080181  RH  085%=      5-min Rain = 0
KHA3 251242Z 13003KT 21/18 A2998 RMK A01 T02080182  RH  085%=      5-min Rain = 0
KHA3 251243Z 13004KT 21/18 A2998 RMK A01 T02090181  RH  084%=      5-min Rain = 0
KHA3 251244Z 13004KT 21/18 A2998 RMK A01 T02080180  RH  084%=      5-min Rain = 0
KHA3 251245Z 14003KT 21/18 A2998 RMK A01 T02080180  RH  084%=      5-min Rain = 0
KHA3 251246Z 13003KT 21/18 A2998 RMK A01 T02090183  RH  085%=      5-min Rain = 0
KHA3 251247Z 12003KT 21/18 A2998 RMK A01 T02100180  RH  083%=      5-min Rain = 0
KHA3 251248Z 12003KT 21/18 A2998 RMK A01 T02100179  RH  082%=      5-min Rain = 0
KHA3 251249Z 12002KT 21/18 A2999 RMK A01 T02110179  RH  082%=      5-min Rain = 0
KHA3 251250Z 12002KT 21/18 A2998 RMK A01 T02130184  RH  083%=      5-min Rain = 0
KHA3 251251Z 11003KT 21/18 A2998 RMK A01 T02140182  RH  082%=      5-min Rain = 0
KHA3 251252Z 11004KT 22/18 A2998 RMK A01 T02150182  RH  081%=      5-min Rain = 0
KHA3 251253Z 11003KT 22/18 A2998 RMK A01 T02160182  RH  081%=      5-min Rain = 0
KHA3 251254Z 11003KT 22/18 A2998 RMK A01 T02160182  RH  081%=      5-min Rain = 0
KHA3 251255Z 11003KT 22/18 A2998 RMK A01 T02160181  RH  080%=      5-min Rain = 0
KHA3 251256Z 12002KT 22/18 A2998 RMK A01 T02170181  RH  080%=      5-min Rain = 0
KHA3 251257Z 11003KT 22/18 A2998 RMK A01 T02170181  RH  080%=      5-min Rain = 0
KHA3 251258Z 12003KT 22/18 A2998 RMK A01 T02180181  RH  080%=      5-min Rain = 0
KHA3 251259Z 12002KT 22/18 A2998 RMK A01 T02190183  RH  080%=      5-min Rain = 0
KHA3 251300Z 10002KT 22/18 A2998 RMK A01 T02200181  RH  079%=      5-min Rain = 0
KHA3 251301Z 10003KT 22/18 A2998 RMK A01 T02200183  RH  079%=      5-min Rain = 0
KHA3 251302Z 10003KT 22/18 A2998 RMK A01 T02210182  RH  078%=      5-min Rain = 0
KHA3 251303Z 10003KT 22/18 A2998 RMK A01 T02210181  RH  078%=      5-min Rain = 0
KHA3 251304Z 10003KT 22/18 A2998 RMK A01 T02220184  RH  079%=      5-min Rain = 0
KHA3 251305Z 12003KT 22/18 A2998 RMK A01 T02230181  RH  077%=      5-min Rain = 0
KHA3 251306Z 11003KT 22/18 A2998 RMK A01 T02230181  RH  077%=      5-min Rain = 0
KHA3 251307Z 11003KT 22/18 A2998 RMK A01 T02230180  RH  076%=      5-min Rain = 0
KHA3 251308Z 13003KT 22/18 A2998 RMK A01 T02230181  RH  077%=      5-min Rain = 0
KHA3 251309Z 12003KT 22/18 A2998 RMK A01 T02240177  RH  075%=      5-min Rain = 0
KHA3 251310Z 11003KT 22/18 A2998 RMK A01 T02240181  RH  077%=      5-min Rain = 0
KHA3 251311Z 11003KT 23/18 A2998 RMK A01 T02250180  RH  076%=      5-min Rain = 0
KHA3 251312Z 11003KT 23/18 A2998 RMK A01 T02250180  RH  076%=      5-min Rain = 0
KHA3 251313Z 12004KT 23/18 A2998 RMK A01 T02260181  RH  076%=      5-min Rain = 0
KHA3 251314Z 11004KT 23/18 A2998 RMK A01 T02270180  RH  075%=      5-min Rain = 0
KHA3 251315Z 11005KT 23/18 A2998 RMK A01 T02270180  RH  075%=      5-min Rain = 0
KHA3 251316Z 12004KT 23/18 A2999 RMK A01 T02270182  RH  075%=      5-min Rain = 0
KHA3 251317Z 13004KT 23/18 A2999 RMK A01 T02270182  RH  076%=      5-min Rain = 0
KHA3 251318Z 12004KT 23/18 A2999 RMK A01 T02280181  RH  075%=      5-min Rain = 0
KHA3 251319Z 11003KT 23/18 A2999 RMK A01 T02300183  RH  075%=      5-min Rain = 0
KHA3 251320Z 14004KT 23/18 A2999 RMK A01 T02310181  RH  073%=      5-min Rain = 0
KHA3 251321Z 13004KT 23/18 A2999 RMK A01 T02310179  RH  072%=      5-min Rain = 0
KHA3 251322Z 13003KT 23/18 A2998 RMK A01 T02310179  RH  072%=      5-min Rain = 0
KHA3 251323Z 14003KT 23/18 A2998 RMK A01 T02320180  RH  072%=      5-min Rain = 0
KHA3 251324Z 13003KT 23/18 A2998 RMK A01 T02330177  RH  071%=      5-min Rain = 0
KHA3 251325Z 13003KT 23/18 A2998 RMK A01 T02340175  RH  069%=      5-min Rain = 0
KHA3 251326Z 14003KT 23/18 A2998 RMK A01 T02340175  RH  070%=      5-min Rain = 0
KHA3 251327Z 14003KT 23/18 A2998 RMK A01 T02340176  RH  070%=      5-min Rain = 0
KHA3 251328Z 14004KT 23/18 A2998 RMK A01 T02340176  RH  070%=      5-min Rain = 0
KHA3 251329Z 14004KT 24/18 A2998 RMK A01 T02350178  RH  070%=      5-min Rain = 0
KHA3 251330Z 13003KT 24/18 A2998 RMK A01 T02350180  RH  071%=      5-min Rain = 0
KHA3 251331Z 14004KT 24/18 A2999 RMK A01 T02360179  RH  070%=      5-min Rain = 0
KHA3 251332Z 14003KT 24/18 A2999 RMK A01 T02370179  RH  070%=      5-min Rain = 0
KHA3 251333Z 14004KT 24/18 A2999 RMK A01 T02370178  RH  069%=      5-min Rain = 0
KHA3 251334Z 15004KT 24/18 A2999 RMK A01 T02390180  RH  070%=      5-min Rain = 0
KHA3 251335Z 15004KT 24/18 A2999 RMK A01 T02400181  RH  070%=      5-min Rain = 0
KHA3 251336Z 14004KT 24/18 A2999 RMK A01 T02400183  RH  070%=      5-min Rain = 0
KHA3 251337Z 14004KT 24/18 A2999 RMK A01 T02410181  RH  069%=      5-min Rain = 0
KHA3 251338Z 14004KT 24/18 A2999 RMK A01 T02420182  RH  069%=      5-min Rain = 0
KHA3 251339Z 13004KT 24/18 A2999 RMK A01 T02420181  RH  069%=      5-min Rain = 0
KHA3 251340Z 13005KT 24/18 A2999 RMK A01 T02420179  RH  068%=      5-min Rain = 0
KHA3 251341Z 14005KT 24/18 A2999 RMK A01 T02420180  RH  069%=      5-min Rain = 0
KHA3 251342Z 14005KT 24/18 A2999 RMK A01 T02410180  RH  068%=      5-min Rain = 0
KHA3 251343Z 13005KT 24/18 A2999 RMK A01 T02430182  RH  069%=      5-min Rain = 0
KHA3 251344Z 14005KT 24/18 A2999 RMK A01 T02440184  RH  069%=      5-min Rain = 0
KHA3 251345Z 14004KT 25/18 A2999 RMK A01 T02450183  RH  068%=      5-min Rain = 0
KHA3 251346Z 14005KT 25/18 A2999 RMK A01 T02470182  RH  067%=      5-min Rain = 0
KHA3 251347Z 13004KT 25/18 A2999 RMK A01 T02470182  RH  067%=      5-min Rain = 0
KHA3 251348Z 13004KT 25/19 A2999 RMK A01 T02490185  RH  068%=      5-min Rain = 0
KHA3 251349Z 14006KT 25/18 A2999 RMK A01 T02500184  RH  067%=      5-min Rain = 0
KHA3 251350Z 15005KT 25/18 A2999 RMK A01 T02500181  RH  065%=      5-min Rain = 0
KHA3 251351Z 14005KT 25/18 A2999 RMK A01 T02500184  RH  067%=      5-min Rain = 0
KHA3 251352Z 15005KT 25/18 A2999 RMK A01 T02500184  RH  066%=      5-min Rain = 0
KHA3 251353Z 14004KT 25/18 A2999 RMK A01 T02500183  RH  066%=      5-min Rain = 0
KHA3 251354Z 15004KT 25/18 A2999 RMK A01 T02490184  RH  067%=      5-min Rain = 0
KHA3 251355Z 15003KT 25/18 A2999 RMK A01 T02490183  RH  067%=      5-min Rain = 0
KHA3 251356Z 16003KT 25/19 A2999 RMK A01 T02500187  RH  068%=      5-min Rain = 0
KHA3 251357Z 17003KT 25/19 A2999 RMK A01 T02520186  RH  067%=      5-min Rain = 0
KHA3 251358Z 15002KT 25/19 A2999 RMK A01 T02530185  RH  066%=      5-min Rain = 0
KHA3 251359Z 17003KT 25/18 A2999 RMK A01 T02530183  RH  065%=      5-min Rain = 0
KHA3 251400Z 17003KT 25/18 A2999 RMK A01 T02540184  RH  065%=      5-min Rain = 0
KHA3 251401Z 15003KT 26/18 A2999 RMK A01 T02560181  RH  063%=      5-min Rain = 0
KHA3 251402Z 15003KT 26/18 A2999 RMK A01 T02580183  RH  063%=      5-min Rain = 0
KHA3 251403Z 15004KT 26/18 A2999 RMK A01 T02580177  RH  061%=      5-min Rain = 0
KHA3 251404Z 17004KT 26/18 A2999 RMK A01 T02570178  RH  062%=      5-min Rain = 0
KHA3 251405Z 19004KT 26/18 A2999 RMK A01 T02570176  RH  061%=      5-min Rain = 0
KHA3 251406Z 18004KT 26/18 A2999 RMK A01 T02570176  RH  061%=      5-min Rain = 0
KHA3 251407Z 16003KT 26/18 A2999 RMK A01 T02580181  RH  062%=      5-min Rain = 0
KHA3 251408Z 17003KT 26/18 A2999 RMK A01 T02590179  RH  061%=      5-min Rain = 0
KHA3 251409Z 16003KT 26/18 A2999 RMK A01 T02600180  RH  061%=      5-min Rain = 0
KHA3 251410Z 15002KT 26/18 A2999 RMK A01 T02610179  RH  061%=      5-min Rain = 0
KHA3 251411Z 16001KT 26/18 A2999 RMK A01 T02620176  RH  059%=      5-min Rain = 0
KHA3 251412Z 20001KT 26/18 A2999 RMK A01 T02610178  RH  060%=      5-min Rain = 0
KHA3 251413Z 22005KT 26/17 A2999 RMK A01 T02620173  RH  058%=      5-min Rain = 0
KHA3 251414Z 23005KT 26/17 A2999 RMK A01 T02630166  RH  055%=      5-min Rain = 0
KHA3 251415Z 24004KT 26/17 A2999 RMK A01 T02620170  RH  057%=      5-min Rain = 0
KHA3 251416Z 24004KT 26/17 A2999 RMK A01 T02620168  RH  056%=      5-min Rain = 0
KHA3 251417Z 24003KT 26/16 A2999 RMK A01 T02610164  RH  055%=      5-min Rain = 0
KHA3 251418Z 24003KT 26/17 A2999 RMK A01 T02600168  RH  057%=      5-min Rain = 0
KHA3 251419Z 27001KT 26/16 A2999 RMK A01 T02610164  RH  055%=      5-min Rain = 0
KHA3 251420Z 00000KT 26/16 A2999 RMK A01 T02610163  RH  055%=      5-min Rain = 0
KHA3 251421Z 24002KT 26/17 A2999 RMK A01 T02620166  RH  056%=      5-min Rain = 0
KHA3 251422Z 19005KT 26/17 A2999 RMK A01 T02640172  RH  057%=      5-min Rain = 0
KHA3 251423Z 19005KT 27/17 A2999 RMK A01 T02650173  RH  057%=      5-min Rain = 0
KHA3 251424Z 19004KT 27/17 A2999 RMK A01 T02650171  RH  056%=      5-min Rain = 0
KHA3 251425Z 22003KT 26/17 A2999 RMK A01 T02640171  RH  056%=      5-min Rain = 0
KHA3 251426Z 24004KT 26/17 A2999 RMK A01 T02630165  RH  055%=      5-min Rain = 0
KHA3 251427Z 23006KT 26/17 A2999 RMK A01 T02640168  RH  056%=      5-min Rain = 0
KHA3 251428Z 20004KT 26/17 A2999 RMK A01 T02640166  RH  055%=      5-min Rain = 0
KHA3 251429Z 19004KT 26/16 A2999 RMK A01 T02640163  RH  054%=      5-min Rain = 0
KHA3 251430Z 20005KT 26/16 A2999 RMK A01 T02640162  RH  053%=      5-min Rain = 0
KHA3 251431Z 23005KT 26/16 A2999 RMK A01 T02640163  RH  054%=      5-min Rain = 0
KHA3 251432Z 26007KT 27/17 A2999 RMK A01 T02650168  RH  055%=      5-min Rain = 0
KHA3 251433Z 25005KT 27/16 A2999 RMK A01 T02670163  RH  053%=      5-min Rain = 0
KHA3 251434Z 21004KT 27/16 A2999 RMK A01 T02660163  RH  053%=      5-min Rain = 0
KHA3 251435Z 15002KT 27/16 A2999 RMK A01 T02660163  RH  053%=      5-min Rain = 0
KHA3 251436Z 20002KT 27/17 A2999 RMK A01 T02660166  RH  054%=      5-min Rain = 0
KHA3 251437Z 26003KT 27/17 A30 RMK A01 T02680167  RH  054%=      5-min Rain = 0
KHA3 251438Z 26005KT 27/17 A30 RMK A01 T02690166  RH  053%=      5-min Rain = 0
KHA3 251439Z 22004KT 27/17 A30 RMK A01 T02690167  RH  054%=      5-min Rain = 0
KHA3 251440Z 22006KT 27/17 A30 RMK A01 T02690168  RH  054%=      5-min Rain = 0
KHA3 251441Z 23006KT 27/17 A30 RMK A01 T02690167  RH  054%=      5-min Rain = 0
KHA3 251442Z 24006KT 27/17 A30 RMK A01 T02690166  RH  053%=      5-min Rain = 0
KHA3 251443Z 23006KT 27/17 A30 RMK A01 T02680167  RH  054%=      5-min Rain = 0
KHA3 251444Z 23005KT 27/16 A30 RMK A01 T02680164  RH  053%=      5-min Rain = 0
KHA3 251445Z 26006KT 27/17 A30 RMK A01 T02670168  RH  054%=      5-min Rain = 0
KHA3 251446Z 23010KT 27/17 A30 RMK A01 T02670166  RH  054%=      5-min Rain = 0
KHA3 251447Z 21006KT 27/17 A30 RMK A01 T02680166  RH  054%=      5-min Rain = 0
KHA3 251448Z 28005KT 27/17 A30 RMK A01 T02670166  RH  054%=      5-min Rain = 0
KHA3 251449Z 28008KT 27/17 A30 RMK A01 T02670168  RH  055%=      5-min Rain = 0
KHA3 251450Z 25009KT 27/17 A30 RMK A01 T02700169  RH  054%=      5-min Rain = 0
KHA3 251451Z 24007KT 27/17 A30 RMK A01 T02740168  RH  052%=      5-min Rain = 0
KHA3 251452Z 24008KT 27/17 A30 RMK A01 T02740167  RH  052%=      5-min Rain = 0
KHA3 251453Z 24010KT 27/17 A30 RMK A01 T02740165  RH  052%=      5-min Rain = 0
KHA3 251454Z 24012KT 27/17 A30 RMK A01 T02730165  RH  052%=      5-min Rain = 0
KHA3 251455Z 24010KT 27/16 A30 RMK A01 T02720163  RH  051%=      5-min Rain = 0
KHA3 251456Z 23009KT 27/16 A30 RMK A01 T02710163  RH  052%=      5-min Rain = 0
KHA3 251457Z 25010KT 27/17 A30 RMK A01 T02710165  RH  052%=      5-min Rain = 0
KHA3 251458Z 25008KT 27/17 A30 RMK A01 T02720166  RH  052%=      5-min Rain = 0
KHA3 251459Z 25008KT 27/17 A30 RMK A01 T02720165  RH  052%=      5-min Rain = 0
KHA3 251500Z 26009KT 27/17 A30 RMK A01 T02730167  RH  052%=      5-min Rain = 0
KHA3 251501Z 26009KT 27/17 A30 RMK A01 T02740168  RH  052%=      5-min Rain = 0
KHA3 251502Z 24010KT 28/17 A30 RMK A01 T02750168  RH  052%=      5-min Rain = 0
KHA3 251503Z 23010KT 27/16 A30 RMK A01 T02740164  RH  051%=      5-min Rain = 0
KHA3 251504Z 24008KT 27/17 A30 RMK A01 T02730168  RH  052%=      5-min Rain = 0
KHA3 251505Z 25009KT 27/17 A30 RMK A01 T02740169  RH  053%=      5-min Rain = 0
KHA3 251506Z 23009KT 28/17 A30 RMK A01 T02760169  RH  052%=      5-min Rain = 0
KHA3 251507Z 24010KT 28/17 A30 RMK A01 T02760168  RH  052%=      5-min Rain = 0
KHA3 251508Z 25008KT 28/17 A30 RMK A01 T02750168  RH  052%=      5-min Rain = 0
KHA3 251509Z 25008KT 27/17 A30 RMK A01 T02740169  RH  053%=      5-min Rain = 0
KHA3 251510Z 25007KT 28/17 A30 RMK A01 T02750168  RH  052%=      5-min Rain = 0
KHA3 251511Z 24008KT 27/17 A30 RMK A01 T02740169  RH  052%=      5-min Rain = 0
KHA3 251512Z 23011KT 28/17 A2999 RMK A01 T02750169  RH  052%=      5-min Rain = 0
KHA3 251513Z 24010KT 28/17 A2999 RMK A01 T02760169  RH  052%=      5-min Rain = 0
KHA3 251514Z 23012KT 28/17 A2999 RMK A01 T02750169  RH  052%=      5-min Rain = 0
KHA3 251515Z 25012KT 28/17 A2999 RMK A01 T02750169  RH  053%=      5-min Rain = 0
KHA3 251516Z 25012KT 28/17 A2999 RMK A01 T02750170  RH  053%=      5-min Rain = 0
KHA3 251517Z 25011KT 28/17 A2999 RMK A01 T02760169  RH  052%=      5-min Rain = 0
KHA3 251518Z 24012KT 28/17 A2999 RMK A01 T02750169  RH  052%=      5-min Rain = 0
KHA3 251519Z 25011KT 28/17 A2999 RMK A01 T02750169  RH  052%=      5-min Rain = 0
KHA3 251520Z 26008KT 28/17 A2999 RMK A01 T02750171  RH  053%=      5-min Rain = 0
KHA3 251521Z 26009KT 28/17 A2999 RMK A01 T02760171  RH  053%=      5-min Rain = 0
KHA3 251522Z 27009KT 28/17 A2999 RMK A01 T02770170  RH  052%=      5-min Rain = 0
KHA3 251523Z 25006KT 28/17 A2999 RMK A01 T02770170  RH  052%=      5-min Rain = 0
KHA3 251524Z 26006KT 28/17 A2999 RMK A01 T02760173  RH  054%=      5-min Rain = 0
KHA3 251525Z 25011KT 28/17 A2999 RMK A01 T02780173  RH  053%=      5-min Rain = 0
KHA3 251526Z 23009KT 28/17 A2999 RMK A01 T02790171  RH  052%=      5-min Rain = 0
KHA3 251527Z 24005KT 28/17 A2999 RMK A01 T02770169  RH  052%=      5-min Rain = 0
KHA3 251528Z 22008KT 28/17 A2999 RMK A01 T02750170  RH  053%=      5-min Rain = 0
KHA3 251529Z 23011KT 28/17 A2999 RMK A01 T02750170  RH  053%=      5-min Rain = 0
KHA3 251530Z 23011KT 28/17 A2999 RMK A01 T02750171  RH  053%=      5-min Rain = 0
KHA3 251531Z 24009KT 28/17 A2999 RMK A01 T02770172  RH  053%=      5-min Rain = 0
KHA3 251532Z 22009KT 28/17 A2999 RMK A01 T02770171  RH  053%=      5-min Rain = 0
KHA3 251533Z 21008KT 28/17 A2999 RMK A01 T02760171  RH  053%=      5-min Rain = 0
KHA3 251534Z 23007KT 28/17 A2999 RMK A01 T02760173  RH  054%=      5-min Rain = 0
KHA3 251535Z 22010KT 28/17 A2999 RMK A01 T02780174  RH  053%=      5-min Rain = 0
KHA3 251536Z 22008KT 28/17 A2999 RMK A01 T02790172  RH  052%=      5-min Rain = 0
KHA3 251537Z 22007KT 28/17 A2999 RMK A01 T02780173  RH  053%=      5-min Rain = 0
KHA3 251538Z 25008KT 28/17 A2999 RMK A01 T02790174  RH  053%=      5-min Rain = 0
KHA3 251539Z 25008KT 28/18 A2999 RMK A01 T02800175  RH  053%=      5-min Rain = 0
KHA3 251540Z 24005KT 28/17 A2999 RMK A01 T02800174  RH  053%=      5-min Rain = 0
KHA3 251541Z 22008KT 28/18 A2999 RMK A01 T02810175  RH  053%=      5-min Rain = 0
KHA3 251542Z 23010KT 28/17 A2999 RMK A01 T02810173  RH  052%=      5-min Rain = 0
KHA3 251543Z 22011KT 28/17 A2999 RMK A01 T02800174  RH  053%=      5-min Rain = 0
KHA3 251544Z 21009KT 28/18 A2999 RMK A01 T02800175  RH  053%=      5-min Rain = 0
KHA3 251545Z 22009KT 28/18 A2999 RMK A01 T02800176  RH  053%=      5-min Rain = 0
KHA3 251546Z 24009G14KT 28/18 A2999 RMK A01 T02810176  RH  053%=      5-min Rain = 0
KHA3 251547Z 24011KT 28/18 A2999 RMK A01 T02820175  RH  052%=      5-min Rain = 0
KHA3 251548Z 24013KT 28/17 A2999 RMK A01 T02820174  RH  052%=      5-min Rain = 0
KHA3 251549Z 23009KT 28/17 A2999 RMK A01 T02810174  RH  052%=      5-min Rain = 0
KHA3 251550Z 24008KT 28/18 A2999 RMK A01 T02810177  RH  053%=      5-min Rain = 0
KHA3 251551Z 24010KT 28/18 A2999 RMK A01 T02830175  RH  052%=      5-min Rain = 0
KHA3 251552Z 23008KT 28/18 A2999 RMK A01 T02820175  RH  052%=      5-min Rain = 0
KHA3 251553Z 25007KT 28/18 A2999 RMK A01 T02810176  RH  053%=      5-min Rain = 0
KHA3 251554Z 24005KT 28/18 A2999 RMK A01 T02810176  RH  053%=      5-min Rain = 0
KHA3 251555Z 22007KT 28/18 A2999 RMK A01 T02810177  RH  053%=      5-min Rain = 0
KHA3 251556Z 21012KT 28/18 A2999 RMK A01 T02820177  RH  053%=      5-min Rain = 0
KHA3 251557Z 20010KT 28/18 A2999 RMK A01 T02820178  RH  053%=      5-min Rain = 0
KHA3 251558Z 20009KT 28/18 A2999 RMK A01 T02830177  RH  052%=      5-min Rain = 0
KHA3 251559Z 20010KT 28/18 A2999 RMK A01 T02820178  RH  053%=      5-min Rain = 0
KHA3 251600Z 24007KT 28/18 A2999 RMK A01 T02830177  RH  053%=      5-min Rain = 0
KHA3 251601Z 25007KT 28/18 A2999 RMK A01 T02840179  RH  053%=      5-min Rain = 0
KHA3 251602Z 23008KT 29/18 A2999 RMK A01 T02850177  RH  052%=      5-min Rain = 0
KHA3 251603Z 22008KT 29/18 A2999 RMK A01 T02850180  RH  053%=      5-min Rain = 0
KHA3 251604Z 23007KT 29/18 A2999 RMK A01 T02860179  RH  052%=      5-min Rain = 0
KHA3 251605Z 26007KT 29/18 A2999 RMK A01 T02860179  RH  052%=      5-min Rain = 0
KHA3 251606Z 26009KT 29/18 A2999 RMK A01 T02860177  RH  052%=      5-min Rain = 0
KHA3 251607Z 24010KT 29/18 A2999 RMK A01 T02860179  RH  052%=      5-min Rain = 0
KHA3 251608Z 23009KT 29/18 A2999 RMK A01 T02890182  RH  052%=      5-min Rain = 0
KHA3 251609Z 20007KT 29/18 A2999 RMK A01 T02900182  RH  052%=      5-min Rain = 0
KHA3 251610Z 21008KT 29/18 A2999 RMK A01 T02910182  RH  052%=      5-min Rain = 0
KHA3 251611Z 20009KT 29/18 A2999 RMK A01 T02890179  RH  051%=      5-min Rain = 0
KHA3 251612Z 20008KT 29/18 A2999 RMK A01 T02870179  RH  052%=      5-min Rain = 0
KHA3 251613Z 18008KT 29/18 A2999 RMK A01 T02860181  RH  053%=      5-min Rain = 0
KHA3 251614Z 19009KT 29/18 A2999 RMK A01 T02870184  RH  053%=      5-min Rain = 0
KHA3 251615Z 19007KT 29/18 A2999 RMK A01 T02880179  RH  052%=      5-min Rain = 0
KHA3 251616Z 20005KT 29/18 A2999 RMK A01 T02860183  RH  054%=      5-min Rain = 0
KHA3 251617Z 18005KT 29/18 A2999 RMK A01 T02870181  RH  053%=      5-min Rain = 0
KHA3 251618Z 20007KT 29/18 A2999 RMK A01 T02880181  RH  053%=      5-min Rain = 0
KHA3 251619Z 21005KT 29/18 A2999 RMK A01 T02880181  RH  052%=      5-min Rain = 0
KHA3 251620Z 21004KT 29/18 A2999 RMK A01 T02870178  RH  052%=      5-min Rain = 0
KHA3 251621Z 22006KT 29/18 A2999 RMK A01 T02860180  RH  053%=      5-min Rain = 0
KHA3 251622Z 22007KT 29/18 A2999 RMK A01 T02870180  RH  052%=      5-min Rain = 0
KHA3 251623Z 21007KT 29/18 A2999 RMK A01 T02880184  RH  053%=      5-min Rain = 0
KHA3 251624Z 20010KT 29/18 A2999 RMK A01 T02900184  RH  053%=      5-min Rain = 0
KHA3 251625Z 20010KT 29/18 A2999 RMK A01 T02920184  RH  052%=      5-min Rain = 0
KHA3 251626Z 22008KT 29/19 A2999 RMK A01 T02920185  RH  052%=      5-min Rain = 0
KHA3 251627Z 21009KT 29/18 A2999 RMK A01 T02920184  RH  052%=      5-min Rain = 0
KHA3 251628Z 22009KT 29/18 A2999 RMK A01 T02920183  RH  052%=      5-min Rain = 0
KHA3 251629Z 22005KT 29/18 A2999 RMK A01 T02910184  RH  052%=      5-min Rain = 0
KHA3 251630Z 22005KT 29/18 A2999 RMK A01 T02910181  RH  052%=      5-min Rain = 0
KHA3 251631Z 22007KT 29/19 A2998 RMK A01 T02910186  RH  053%=      5-min Rain = 0
KHA3 251632Z 21007KT 29/18 A2998 RMK A01 T02930183  RH  052%=      5-min Rain = 0
KHA3 251633Z 21008KT 29/19 A2998 RMK A01 T02930187  RH  053%=      5-min Rain = 0
KHA3 251634Z 21004KT 29/18 A2998 RMK A01 T02940183  RH  051%=      5-min Rain = 0
KHA3 251635Z 19006KT 29/18 A2998 RMK A01 T02930184  RH  052%=      5-min Rain = 0
KHA3 251636Z 26006KT 29/18 A2998 RMK A01 T02930184  RH  052%=      5-min Rain = 0
KHA3 251637Z 23006KT 29/18 A2998 RMK A01 T02930183  RH  052%=      5-min Rain = 0
KHA3 251638Z 24009KT 29/19 A2998 RMK A01 T02930186  RH  052%=      5-min Rain = 0
KHA3 251639Z 24008KT 30/18 A2998 RMK A01 T02950183  RH  051%=      5-min Rain = 0
KHA3 251640Z 22005KT 29/18 A2998 RMK A01 T02930179  RH  050%=      5-min Rain = 0
KHA3 251641Z 25009KT 29/19 A2998 RMK A01 T02910186  RH  053%=      5-min Rain = 0
KHA3 251642Z 25009KT 29/18 A2998 RMK A01 T02930182  RH  051%=      5-min Rain = 0
KHA3 251643Z 26004KT 29/18 A2998 RMK A01 T02920183  RH  052%=      5-min Rain = 0
KHA3 251644Z 23004KT 29/18 A2998 RMK A01 T02910183  RH  052%=      5-min Rain = 0
KHA3 251645Z 22008G13KT 29/18 A2998 RMK A01 T02920184  RH  052%=      5-min Rain = 0
KHA3 251646Z 22012KT 29/19 A2998 RMK A01 T02940185  RH  052%=      5-min Rain = 0
KHA3 251647Z 21008KT 30/18 A2998 RMK A01 T02950184  RH  051%=      5-min Rain = 0
KHA3 251648Z 21008KT 30/19 A2998 RMK A01 T02950187  RH  052%=      5-min Rain = 0
KHA3 251649Z 20006KT 30/19 A2998 RMK A01 T02950187  RH  052%=      5-min Rain = 0
KHA3 251650Z 21004KT 30/18 A2998 RMK A01 T02960184  RH  051%=      5-min Rain = 0
KHA3 251651Z 25002KT 30/19 A2998 RMK A01 T02950188  RH  053%=      5-min Rain = 0
KHA3 251652Z 24001KT 30/18 A2998 RMK A01 T02960182  RH  050%=      5-min Rain = 0
KHA3 251653Z 19005KT 30/19 A2998 RMK A01 T02960187  RH  052%=      5-min Rain = 0
KHA3 251654Z 23007KT 30/19 A2998 RMK A01 T02980190  RH  052%=      5-min Rain = 0
KHA3 251655Z 23007KT 30/19 A2998 RMK A01 T03000187  RH  051%=      5-min Rain = 0
KHA3 251656Z 23006KT 30/19 A2998 RMK A01 T03000189  RH  052%=      5-min Rain = 0
KHA3 251657Z 24010KT 30/19 A2998 RMK A01 T03010188  RH  051%=      5-min Rain = 0
KHA3 251658Z 25007KT 30/19 A2998 RMK A01 T03020189  RH  051%=      5-min Rain = 0
KHA3 251659Z 23006KT 30/19 A2998 RMK A01 T03010185  RH  050%=      5-min Rain = 0
KHA3 251700Z 24006KT 30/19 A2998 RMK A01 T02980187  RH  051%=      5-min Rain = 0
KHA3 251701Z 19006KT 30/20 A2998 RMK A01 T03000196  RH  054%=      5-min Rain = 0
KHA3 251702Z 19011KT 30/19 A2998 RMK A01 T03040193  RH  051%=      5-min Rain = 0
KHA3 251703Z 19009KT 31/19 A2998 RMK A01 T03050192  RH  051%=      5-min Rain = 0
KHA3 251704Z 19008KT 30/19 A2998 RMK A01 T03040190  RH  050%=      5-min Rain = 0
KHA3 251705Z 17006KT 30/19 A2998 RMK A01 T03010188  RH  051%=      5-min Rain = 0
KHA3 251706Z 18010KT 30/20 A2998 RMK A01 T03010196  RH  053%=      5-min Rain = 0
KHA3 251707Z 19010KT 30/19 A2998 RMK A01 T03030191  RH  051%=      5-min Rain = 0
KHA3 251708Z 19008KT 30/19 A2998 RMK A01 T03030189  RH  051%=      5-min Rain = 0
KHA3 251709Z 18007KT 30/19 A2998 RMK A01 T03000188  RH  051%=      5-min Rain = 0
KHA3 251710Z 18008KT 30/19 A2998 RMK A01 T02990190  RH  052%=      5-min Rain = 0
KHA3 251711Z 19004KT 30/19 A2998 RMK A01 T02990189  RH  052%=      5-min Rain = 0
KHA3 251712Z 19002KT 30/19 A2998 RMK A01 T03000192  RH  052%=      5-min Rain = 0
KHA3 251713Z 17005KT 30/19 A2998 RMK A01 T03020191  RH  051%=      5-min Rain = 0
KHA3 251714Z 18005KT 30/19 A2998 RMK A01 T03030190  RH  051%=      5-min Rain = 0
KHA3 251715Z 17005KT 30/19 A2998 RMK A01 T03030193  RH  052%=      5-min Rain = 0
KHA3 251716Z 13007KT 30/19 A2998 RMK A01 T03040194  RH  052%=      5-min Rain = 0
KHA3 251717Z 11007KT 30/19 A2998 RMK A01 T03040190  RH  051%=      5-min Rain = 0
KHA3 251718Z 15008KT 30/19 A2998 RMK A01 T03040194  RH  052%=      5-min Rain = 0
KHA3 251719Z 19011KT 31/19 A2998 RMK A01 T03050193  RH  051%=      5-min Rain = 0
KHA3 251720Z 22008KT 31/19 A2998 RMK A01 T03060190  RH  050%=      5-min Rain = 0
KHA3 251721Z 23008KT 31/19 A2998 RMK A01 T03060187  RH  049%=      5-min Rain = 0
KHA3 251722Z 26006KT 30/19 A2998 RMK A01 T03040191  RH  051%=      5-min Rain = 0
KHA3 251723Z 20005KT 30/19 A2998 RMK A01 T03040190  RH  051%=      5-min Rain = 0
KHA3 251724Z 22006KT 31/19 A2998 RMK A01 T03050189  RH  050%=      5-min Rain = 0
KHA3 251725Z 24006KT 31/19 A2998 RMK A01 T03050191  RH  051%=      5-min Rain = 0
KHA3 251726Z 24005KT 31/19 A2998 RMK A01 T03050189  RH  050%=      5-min Rain = 0
KHA3 251727Z 23007KT 31/19 A2998 RMK A01 T03060190  RH  050%=      5-min Rain = 0
KHA3 251728Z 21008KT 31/19 A2998 RMK A01 T03050191  RH  051%=      5-min Rain = 0
KHA3 251729Z 21005KT 31/19 A2998 RMK A01 T03050190  RH  050%=      5-min Rain = 0
KHA3 251730Z 18003KT 30/19 A2998 RMK A01 T03040190  RH  051%=      5-min Rain = 0
KHA3 251731Z 16004KT 30/19 A2998 RMK A01 T03040191  RH  051%=      5-min Rain = 0
KHA3 251732Z 15003KT 30/19 A2998 RMK A01 T03040194  RH  052%=      5-min Rain = 0
KHA3 251733Z 18006KT 31/20 A2998 RMK A01 T03070198  RH  052%=      5-min Rain = 0
KHA3 251734Z 18007KT 31/19 A2998 RMK A01 T03100190  RH  049%=      5-min Rain = 0
KHA3 251735Z 15005KT 31/19 A2998 RMK A01 T03070194  RH  051%=      5-min Rain = 0
KHA3 251736Z 18010KT 31/20 A2998 RMK A01 T03070195  RH  051%=      5-min Rain = 0
KHA3 251737Z 20010KT 31/19 A2998 RMK A01 T03070194  RH  051%=      5-min Rain = 0
KHA3 251738Z 19008KT 31/20 A2998 RMK A01 T03080195  RH  051%=      5-min Rain = 0
KHA3 251739Z 19008KT 31/19 A2998 RMK A01 T03080194  RH  050%=      5-min Rain = 0
KHA3 251740Z 20008KT 31/20 A2998 RMK A01 T03080197  RH  051%=      5-min Rain = 0
KHA3 251741Z 19009KT 31/19 A2998 RMK A01 T03090193  RH  050%=      5-min Rain = 0
KHA3 251742Z 19007KT 31/19 A2998 RMK A01 T03100194  RH  050%=      5-min Rain = 0
KHA3 251743Z 19003KT 31/19 A2998 RMK A01 T03080189  RH  049%=      5-min Rain = 0
KHA3 251744Z 16004KT 31/19 A2998 RMK A01 T03070190  RH  050%=      5-min Rain = 0
KHA3 251745Z 16006KT 31/19 A2998 RMK A01 T03060193  RH  051%=      5-min Rain = 0
KHA3 251746Z 15006KT 31/19 A2998 RMK A01 T03070194  RH  051%=      5-min Rain = 0
KHA3 251747Z 15005KT 31/19 A2998 RMK A01 T03080190  RH  049%=      5-min Rain = 0
KHA3 251748Z 13005KT 31/19 A2998 RMK A01 T03080194  RH  051%=      5-min Rain = 0
KHA3 251749Z 14008KT 31/19 A2998 RMK A01 T03090194  RH  050%=      5-min Rain = 0
KHA3 251750Z 15006KT 31/19 A2998 RMK A01 T03090192  RH  050%=      5-min Rain = 0
KHA3 251751Z 16006KT 31/19 A2998 RMK A01 T03080193  RH  050%=      5-min Rain = 0
KHA3 251752Z 17005KT 31/20 A2998 RMK A01 T03080198  RH  052%=      5-min Rain = 0
KHA3 251753Z 19006KT 31/19 A2998 RMK A01 T03090192  RH  050%=      5-min Rain = 0
KHA3 251754Z 18006KT 31/19 A2998 RMK A01 T03090192  RH  050%=      5-min Rain = 0
KHA3 251755Z 20007KT 31/19 A2998 RMK A01 T03080192  RH  050%=      5-min Rain = 0
KHA3 251756Z 19007KT 31/19 A2998 RMK A01 T03080190  RH  049%=      5-min Rain = 0
KHA3 251757Z 19005KT 31/19 A2998 RMK A01 T03060189  RH  050%=      5-min Rain = 0
KHA3 251758Z 19009KT 31/19 A2998 RMK A01 T03060194  RH  051%=      5-min Rain = 0
KHA3 251759Z 19008KT 31/19 A2998 RMK A01 T03080194  RH  051%=      5-min Rain = 0
KHA3 251800Z 18009KT 31/20 A2998 RMK A01 T03110198  RH  051%=      5-min Rain = 0
KHA3 251801Z 18008KT 31/19 A2998 RMK A01 T03120192  RH  049%=      5-min Rain = 0
KHA3 251802Z 17008KT 31/19 A2998 RMK A01 T03100193  RH  050%=      5-min Rain = 0
KHA3 251803Z 19008KT 31/19 A2998 RMK A01 T03100194  RH  050%=      5-min Rain = 0
KHA3 251804Z 19007KT 31/19 A2998 RMK A01 T03100191  RH  049%=      5-min Rain = 0
KHA3 251805Z 16010KT 31/20 A2998 RMK A01 T03100198  RH  052%=      5-min Rain = 0
KHA3 251806Z 15010KT 31/19 A2998 RMK A01 T03120194  RH  050%=      5-min Rain = 0
KHA3 251807Z 16010KT 31/19 A2998 RMK A01 T03120192  RH  049%=      5-min Rain = 0
KHA3 251808Z 16008KT 31/19 A2998 RMK A01 T03110189  RH  048%=      5-min Rain = 0
KHA3 251809Z 17009KT 31/19 A2998 RMK A01 T03090192  RH  050%=      5-min Rain = 0
KHA3 251810Z 17008KT 31/19 A2998 RMK A01 T03090190  RH  049%=      5-min Rain = 0
KHA3 251811Z 18009KT 31/19 A2998 RMK A01 T03090192  RH  050%=      5-min Rain = 0
KHA3 251812Z 17009KT 31/19 A2998 RMK A01 T03100189  RH  048%=      5-min Rain = 0
KHA3 251813Z 15006KT 31/19 A2998 RMK A01 T03080188  RH  049%=      5-min Rain = 0
KHA3 251814Z 16006KT 31/19 A2998 RMK A01 T03080193  RH  050%=      5-min Rain = 0
KHA3 251815Z 18008KT 31/19 A2998 RMK A01 T03090191  RH  050%=      5-min Rain = 0
KHA3 251816Z 17008KT 31/19 A2998 RMK A01 T03100190  RH  049%=      5-min Rain = 0
KHA3 251817Z 16007KT 31/19 A2998 RMK A01 T03100188  RH  048%=      5-min Rain = 0
KHA3 251818Z 17007KT 31/19 A2998 RMK A01 T03100189  RH  049%=      5-min Rain = 0
KHA3 251819Z 18006KT 31/19 A2998 RMK A01 T03090189  RH  049%=      5-min Rain = 0
KHA3 251820Z 16006KT 31/19 A2998 RMK A01 T03100187  RH  048%=      5-min Rain = 0
KHA3 251821Z 21007KT 31/19 A2998 RMK A01 T03090191  RH  049%=      5-min Rain = 0
KHA3 251822Z 18008KT 31/20 A2998 RMK A01 T03120195  RH  050%=      5-min Rain = 0
KHA3 251823Z 18009KT 32/19 A2998 RMK A01 T03150193  RH  048%=      5-min Rain = 0
KHA3 251824Z 17010KT 32/19 A2998 RMK A01 T03160191  RH  047%=      5-min Rain = 0
KHA3 251825Z 15009KT 32/19 A2998 RMK A01 T03150190  RH  047%=      5-min Rain = 0
KHA3 251826Z 16008KT 31/19 A2998 RMK A01 T03140193  RH  049%=      5-min Rain = 0
KHA3 251827Z 19008KT 31/19 A2998 RMK A01 T03140188  RH  047%=      5-min Rain = 0
KHA3 251828Z 20005KT 31/19 A2998 RMK A01 T03130186  RH  047%=      5-min Rain = 0
KHA3 251829Z 18007KT 31/19 A2998 RMK A01 T03120187  RH  047%=      5-min Rain = 0
KHA3 251830Z 16010KT 31/19 A2998 RMK A01 T03120193  RH  049%=      5-min Rain = 0
KHA3 251831Z 18006KT 31/19 A2998 RMK A01 T03140186  RH  047%=      5-min Rain = 0
KHA3 251832Z 17009G14KT 31/19 A2998 RMK A01 T03130188  RH  047%=      5-min Rain = 0
KHA3 251833Z 18012KT 31/19 A2998 RMK A01 T03140191  RH  048%=      5-min Rain = 0
KHA3 251834Z 18009KT 32/19 A2998 RMK A01 T03170189  RH  047%=      5-min Rain = 0
KHA3 251835Z 18007KT 32/19 A2998 RMK A01 T03170186  RH  046%=      5-min Rain = 0
KHA3 251836Z 20006KT 32/19 A2998 RMK A01 T03150189  RH  047%=      5-min Rain = 0
KHA3 251837Z 18011G16KT 32/19 A2998 RMK A01 T03150192  RH  048%=      5-min Rain = 0
KHA3 251838Z 19009KT 32/19 A2998 RMK A01 T03160189  RH  047%=      5-min Rain = 0
KHA3 251839Z 19010KT 32/19 A2998 RMK A01 T03160189  RH  047%=      5-min Rain = 0
KHA3 251840Z 19007KT 32/19 A2998 RMK A01 T03150186  RH  046%=      5-min Rain = 0
KHA3 251841Z 19005KT 31/18 A2998 RMK A01 T03140184  RH  046%=      5-min Rain = 0
KHA3 251842Z 18005KT 31/19 A2998 RMK A01 T03130190  RH  048%=      5-min Rain = 0
KHA3 251843Z 18004KT 32/19 A2998 RMK A01 T03150189  RH  047%=      5-min Rain = 0
KHA3 251844Z 14010KT 32/19 A2998 RMK A01 T03160193  RH  048%=      5-min Rain = 0
KHA3 251845Z 14009KT 32/19 A2998 RMK A01 T03180189  RH  047%=      5-min Rain = 0
KHA3 251846Z 14006KT 32/19 A2998 RMK A01 T03170188  RH  047%=      5-min Rain = 0
KHA3 251847Z 13006KT 32/19 A2998 RMK A01 T03160190  RH  047%=      5-min Rain = 0
KHA3 251848Z 13006KT 32/19 A2998 RMK A01 T03160194  RH  048%=      5-min Rain = 0
KHA3 251849Z 14007KT 32/19 A2998 RMK A01 T03190194  RH  048%=      5-min Rain = 0
KHA3 251850Z 15008KT 32/19 A2998 RMK A01 T03200189  RH  046%=      5-min Rain = 0
KHA3 251851Z 16010KT 32/19 A2998 RMK A01 T03180193  RH  047%=      5-min Rain = 0
KHA3 251852Z 14009KT 32/19 A2998 RMK A01 T03200193  RH  047%=      5-min Rain = 0
KHA3 251853Z 16010KT 32/19 A2998 RMK A01 T03210192  RH  047%=      5-min Rain = 0
KHA3 251854Z 16009KT 32/19 A2998 RMK A01 T03210191  RH  046%=      5-min Rain = 0
KHA3 251855Z 13009KT 32/19 A2998 RMK A01 T03190189  RH  046%=      5-min Rain = 0
KHA3 251856Z 12007KT 32/19 A2998 RMK A01 T03170186  RH  046%=      5-min Rain = 0
KHA3 251857Z 15009KT 32/19 A2998 RMK A01 T03160193  RH  048%=      5-min Rain = 0
KHA3 251858Z 16008KT 32/19 A2998 RMK A01 T03190194  RH  048%=      5-min Rain = 0
KHA3 251859Z 18010KT 32/19 A2998 RMK A01 T03220192  RH  046%=      5-min Rain = 0
KHA3 251900Z 18011KT 32/19 A2998 RMK A01 T03230190  RH  046%=      5-min Rain = 0
KHA3 251901Z 17010KT 32/19 A2998 RMK A01 T03210191  RH  046%=      5-min Rain = 0
KHA3 251902Z 16006KT 32/19 A2998 RMK A01 T03200189  RH  046%=      5-min Rain = 0
KHA3 251903Z 16010KT 32/19 A2998 RMK A01 T03200190  RH  046%=      5-min Rain = 0
KHA3 251904Z 15009KT 32/19 A2998 RMK A01 T03180186  RH  045%=      5-min Rain = 0
KHA3 251905Z 15008KT 32/19 A2998 RMK A01 T03170187  RH  046%=      5-min Rain = 0
KHA3 251906Z 14011KT 32/19 A2998 RMK A01 T03160191  RH  047%=      5-min Rain = 0
KHA3 251907Z 14010KT 32/19 A2998 RMK A01 T03180189  RH  047%=      5-min Rain = 0
KHA3 251908Z 14011KT 32/19 A2998 RMK A01 T03190194  RH  048%=      5-min Rain = 0
KHA3 251909Z 15009KT 32/19 A2998 RMK A01 T03220194  RH  047%=      5-min Rain = 0
KHA3 251910Z 14011KT 32/19 A2998 RMK A01 T03230192  RH  046%=      5-min Rain = 0
KHA3 251911Z 16011KT 32/19 A2998 RMK A01 T03220192  RH  046%=      5-min Rain = 0
KHA3 251912Z 15007KT 32/19 A2998 RMK A01 T03210188  RH  045%=      5-min Rain = 0
KHA3 251913Z 13007KT 32/19 A2998 RMK A01 T03190187  RH  046%=      5-min Rain = 0
KHA3 251914Z 14006KT 32/19 A2998 RMK A01 T03180187  RH  046%=      5-min Rain = 0
KHA3 251915Z 14006KT 32/19 A2998 RMK A01 T03180186  RH  045%=      5-min Rain = 0
KHA3 251916Z 17009KT 32/19 A2998 RMK A01 T03180186  RH  046%=      5-min Rain = 0
KHA3 251917Z 18012KT 32/19 A2998 RMK A01 T03190191  RH  047%=      5-min Rain = 0
KHA3 251918Z 18012KT 32/19 A2997 RMK A01 T03200191  RH  046%=      5-min Rain = 0
KHA3 251919Z 18010KT 32/19 A2998 RMK A01 T03210189  RH  046%=      5-min Rain = 0
KHA3 251920Z 19007KT 32/19 A2998 RMK A01 T03210190  RH  046%=      5-min Rain = 0
KHA3 251921Z 18006KT 32/19 A2998 RMK A01 T03200189  RH  046%=      5-min Rain = 0
KHA3 251922Z 18009KT 32/20 A2998 RMK A01 T03200195  RH  048%=      5-min Rain = 0
KHA3 251923Z 18012KT 32/19 A2997 RMK A01 T03230193  RH  046%=      5-min Rain = 0
KHA3 251924Z 18011KT 32/19 A2997 RMK A01 T03240191  RH  045%=      5-min Rain = 0
KHA3 251925Z 19009KT 32/19 A2998 RMK A01 T03230185  RH  044%=      5-min Rain = 0
KHA3 251926Z 19006KT 32/19 A2998 RMK A01 T03200185  RH  045%=      5-min Rain = 0
KHA3 251927Z 20004KT 32/19 A2998 RMK A01 T03190187  RH  046%=      5-min Rain = 0
KHA3 251928Z 18007KT 32/19 A2997 RMK A01 T03200192  RH  046%=      5-min Rain = 0
KHA3 251929Z 17010KT 32/20 A2997 RMK A01 T03230195  RH  047%=      5-min Rain = 0
KHA3 251930Z 15010KT 33/19 A2997 RMK A01 T03260189  RH  044%=      5-min Rain = 0
KHA3 251931Z 15009KT 33/19 A2997 RMK A01 T03260188  RH  044%=      5-min Rain = 0
KHA3 251932Z 14008KT 32/19 A2997 RMK A01 T03240191  RH  045%=      5-min Rain = 0
KHA3 251933Z 14006KT 32/19 A2997 RMK A01 T03230187  RH  044%=      5-min Rain = 0
KHA3 251934Z 14002KT 32/19 A2997 RMK A01 T03220188  RH  045%=      5-min Rain = 0
KHA3 251935Z 13006KT 32/20 A2997 RMK A01 T03220195  RH  047%=      5-min Rain = 0
KHA3 251936Z 16007KT 32/20 A2997 RMK A01 T03240195  RH  047%=      5-min Rain = 0
KHA3 251937Z 17012KT 33/19 A2997 RMK A01 T03260194  RH  046%=      5-min Rain = 0
KHA3 251938Z 17010KT 33/19 A2997 RMK A01 T03260192  RH  045%=      5-min Rain = 0
KHA3 251939Z 18009KT 33/19 A2997 RMK A01 T03260193  RH  046%=      5-min Rain = 0
KHA3 251940Z 18010KT 33/19 A2997 RMK A01 T03260194  RH  046%=      5-min Rain = 0
KHA3 251941Z 17009KT 33/19 A2997 RMK A01 T03260188  RH  044%=      5-min Rain = 0
KHA3 251942Z 18008G14KT 32/19 A2997 RMK A01 T03240192  RH  046%=      5-min Rain = 0
KHA3 251943Z 17011KT 33/19 A2997 RMK A01 T03250193  RH  046%=      5-min Rain = 0
KHA3 251944Z 18009KT 33/19 A2997 RMK A01 T03270191  RH  045%=      5-min Rain = 0
KHA3 251945Z 14007KT 33/19 A2997 RMK A01 T03270192  RH  045%=      5-min Rain = 0
KHA3 251946Z 15008KT 33/19 A2997 RMK A01 T03260193  RH  045%=      5-min Rain = 0
KHA3 251947Z 14011G16KT 33/19 A2997 RMK A01 T03260192  RH  045%=      5-min Rain = 0
KHA3 251948Z 14011G16KT 33/19 A2997 RMK A01 T03260190  RH  045%=      5-min Rain = 0
KHA3 251949Z 15010KT 33/19 A2997 RMK A01 T03260194  RH  046%=      5-min Rain = 0
KHA3 251950Z 15009G14KT 33/19 A2997 RMK A01 T03270189  RH  044%=      5-min Rain = 0
KHA3 251951Z 14009KT 33/19 A2997 RMK A01 T03270188  RH  044%=      5-min Rain = 0
KHA3 251952Z 15007KT 33/19 A2997 RMK A01 T03260187  RH  044%=      5-min Rain = 0
KHA3 251953Z 16007KT 33/19 A2997 RMK A01 T03250191  RH  045%=      5-min Rain = 0
KHA3 251954Z 14008KT 33/20 A2997 RMK A01 T03290196  RH  046%=      5-min Rain = 0
KHA3 251955Z 15010KT 33/19 A2997 RMK A01 T03310193  RH  044%=      5-min Rain = 0
KHA3 251956Z 16011KT 33/19 A2997 RMK A01 T03330191  RH  043%=      5-min Rain = 0
KHA3 251957Z 16005KT 33/19 A2997 RMK A01 T03320187  RH  043%=      5-min Rain = 0
KHA3 251958Z 17007KT 33/19 A2996 RMK A01 T03300188  RH  043%=      5-min Rain = 0
KHA3 251959Z 16008KT 33/19 A2996 RMK A01 T03280191  RH  044%=      5-min Rain = 0
KHA3 252000Z 17009KT 33/19 A2996 RMK A01 T03280187  RH  043%=      5-min Rain = 0
KHA3 252001Z 18012KT 33/19 A2996 RMK A01 T03270191  RH  045%=      5-min Rain = 0
KHA3 252002Z 17011KT 33/19 A2996 RMK A01 T03300192  RH  044%=      5-min Rain = 0
KHA3 252003Z 17013KT 33/19 A2996 RMK A01 T03310190  RH  044%=      5-min Rain = 0
KHA3 252004Z 17012KT 33/19 A2996 RMK A01 T03300186  RH  043%=      5-min Rain = 0
KHA3 252005Z 18008KT 33/18 A2996 RMK A01 T03270182  RH  042%=      5-min Rain = 0
KHA3 252006Z 16010KT 32/19 A2996 RMK A01 T03240185  RH  044%=      5-min Rain = 0
KHA3 252007Z 14013KT 32/19 A2996 RMK A01 T03240188  RH  045%=      5-min Rain = 0
KHA3 252008Z 15013KT 33/19 A2996 RMK A01 T03250186  RH  044%=      5-min Rain = 0
KHA3 252009Z 17009KT 33/19 A2996 RMK A01 T03260187  RH  044%=      5-min Rain = 0
KHA3 252010Z 16007KT 33/19 A2996 RMK A01 T03250187  RH  044%=      5-min Rain = 0
KHA3 252011Z 17012KT 33/19 A2996 RMK A01 T03260190  RH  045%=      5-min Rain = 0
KHA3 252012Z 17012KT 33/19 A2996 RMK A01 T03270188  RH  044%=      5-min Rain = 0
KHA3 252013Z 18010KT 33/19 A2996 RMK A01 T03270185  RH  043%=      5-min Rain = 0
KHA3 252014Z 20007KT 33/19 A2996 RMK A01 T03250185  RH  043%=      5-min Rain = 0
KHA3 252015Z 18009KT 32/19 A2996 RMK A01 T03240185  RH  044%=      5-min Rain = 0
KHA3 252016Z 15010KT 33/19 A2996 RMK A01 T03250192  RH  046%=      5-min Rain = 0
KHA3 252017Z 15012KT 33/19 A2996 RMK A01 T03290191  RH  044%=      5-min Rain = 0
KHA3 252018Z 15011KT 33/19 A2996 RMK A01 T03300189  RH  043%=      5-min Rain = 0
KHA3 252019Z 14011KT 33/19 A2996 RMK A01 T03310187  RH  043%=      5-min Rain = 0
KHA3 252020Z 14012KT 33/19 A2996 RMK A01 T03310187  RH  043%=      5-min Rain = 0
KHA3 252021Z 14009KT 33/18 A2996 RMK A01 T03270183  RH  042%=      5-min Rain = 0
KHA3 252022Z 14008KT 33/19 A2996 RMK A01 T03250185  RH  044%=      5-min Rain = 0
KHA3 252023Z 14009G15KT 32/19 A2995 RMK A01 T03240190  RH  045%=      5-min Rain = 0
KHA3 252024Z 15011KT 33/19 A2995 RMK A01 T03260189  RH  044%=      5-min Rain = 0
KHA3 252025Z 14013KT 33/19 A2995 RMK A01 T03290190  RH  044%=      5-min Rain = 0
KHA3 252026Z 13011KT 33/19 A2995 RMK A01 T03290189  RH  044%=      5-min Rain = 0
KHA3 252027Z 14010KT 33/19 A2995 RMK A01 T03270188  RH  044%=      5-min Rain = 0
KHA3 252028Z 15009KT 33/19 A2995 RMK A01 T03280194  RH  045%=      5-min Rain = 0
KHA3 252029Z 14010KT 33/19 A2995 RMK A01 T03290190  RH  044%=      5-min Rain = 0
KHA3 252030Z 12007KT 33/19 A2995 RMK A01 T03280189  RH  044%=      5-min Rain = 0
KHA3 252031Z 14007KT 33/19 A2995 RMK A01 T03280192  RH  045%=      5-min Rain = 0
KHA3 252032Z 14010KT 33/19 A2995 RMK A01 T03280192  RH  045%=      5-min Rain = 0
KHA3 252033Z 14010KT 33/19 A2995 RMK A01 T03290190  RH  044%=      5-min Rain = 0
KHA3 252034Z 16010KT 33/19 A2995 RMK A01 T03290190  RH  044%=      5-min Rain = 0
KHA3 252035Z 16010G15KT 33/19 A2995 RMK A01 T03290191  RH  044%=      5-min Rain = 0
KHA3 252036Z 16012KT 33/19 A2995 RMK A01 T03290194  RH  045%=      5-min Rain = 0
KHA3 252037Z 16012KT 33/19 A2995 RMK A01 T03300193  RH  044%=      5-min Rain = 0
KHA3 252038Z 17010KT 33/19 A2995 RMK A01 T03300186  RH  043%=      5-min Rain = 0
KHA3 252039Z 15011KT 33/19 A2995 RMK A01 T03270189  RH  044%=      5-min Rain = 0
KHA3 252040Z 14012KT 33/19 A2995 RMK A01 T03270190  RH  044%=      5-min Rain = 0
KHA3 252041Z 14010KT 33/19 A2995 RMK A01 T03270188  RH  044%=      5-min Rain = 0
KHA3 252042Z 13007KT 33/19 A2995 RMK A01 T03260188  RH  044%=      5-min Rain = 0
KHA3 252043Z 16008KT 33/20 A2995 RMK A01 T03270196  RH  046%=      5-min Rain = 0
KHA3 252044Z 16008KT 33/20 A2995 RMK A01 T03320202  RH  047%=      5-min Rain = 0
KHA3 252045Z 15008KT 34/20 A2995 RMK A01 T03350198  RH  045%=      5-min Rain = 0
KHA3 252046Z 14008KT 34/20 A2995 RMK A01 T03350195  RH  044%=      5-min Rain = 0
KHA3 252047Z 14008KT 33/19 A2995 RMK A01 T03330186  RH  042%=      5-min Rain = 0
KHA3 252048Z 16010KT 33/19 A2995 RMK A01 T03300192  RH  044%=      5-min Rain = 0
KHA3 252049Z 16010KT 33/19 A2995 RMK A01 T03300192  RH  044%=      5-min Rain = 0
KHA3 252050Z 16010KT 33/19 A2995 RMK A01 T03310190  RH  044%=      5-min Rain = 0
KHA3 252051Z 15011KT 33/19 A2995 RMK A01 T03300189  RH  043%=      5-min Rain = 0
KHA3 252052Z 16011KT 33/19 A2995 RMK A01 T03290186  RH  043%=      5-min Rain = 0
KHA3 252053Z 15008KT 33/19 A2995 RMK A01 T03270186  RH  043%=      5-min Rain = 0
KHA3 252054Z 14007KT 33/19 A2995 RMK A01 T03270185  RH  043%=      5-min Rain = 0
KHA3 252055Z 15010KT 33/19 A2994 RMK A01 T03270190  RH  044%=      5-min Rain = 0
KHA3 252056Z 14013KT 33/19 A2995 RMK A01 T03290190  RH  044%=      5-min Rain = 0
KHA3 252057Z 14011KT 33/19 A2995 RMK A01 T03300190  RH  044%=      5-min Rain = 0
KHA3 252058Z 14012KT 33/19 A2995 RMK A01 T03310186  RH  042%=      5-min Rain = 0
KHA3 252059Z 14014KT 33/19 A2995 RMK A01 T03310189  RH  043%=      5-min Rain = 0
KHA3 252100Z 14012KT 33/19 A2995 RMK A01 T03290185  RH  042%=      5-min Rain = 0
KHA3 252101Z 15010KT 33/19 A2994 RMK A01 T03270188  RH  044%=      5-min Rain = 0
KHA3 252102Z 14013KT 33/19 A2994 RMK A01 T03270186  RH  043%=      5-min Rain = 0
KHA3 252103Z 14012KT 33/19 A2994 RMK A01 T03270185  RH  043%=      5-min Rain = 0
KHA3 252104Z 13012KT 33/18 A2994 RMK A01 T03250184  RH  043%=      5-min Rain = 0
KHA3 252105Z 12010KT 33/19 A2994 RMK A01 T03250186  RH  044%=      5-min Rain = 0
KHA3 252106Z 13012KT 33/19 A2994 RMK A01 T03260187  RH  044%=      5-min Rain = 0
KHA3 252107Z 13011KT 33/19 A2994 RMK A01 T03270188  RH  044%=      5-min Rain = 0
KHA3 252108Z 16012KT 33/19 A2994 RMK A01 T03280188  RH  044%=      5-min Rain = 0
KHA3 252109Z 15012G17KT 33/19 A2994 RMK A01 T03280190  RH  044%=      5-min Rain = 0
KHA3 252110Z 17013KT 33/19 A2994 RMK A01 T03290189  RH  044%=      5-min Rain = 0
KHA3 252111Z 17014KT 33/19 A2994 RMK A01 T03290187  RH  043%=      5-min Rain = 0
KHA3 252112Z 16015KT 33/18 A2994 RMK A01 T03280184  RH  042%=      5-min Rain = 0
KHA3 252113Z 15013KT 33/18 A2994 RMK A01 T03280182  RH  042%=      5-min Rain = 0
KHA3 252114Z 15011KT 33/18 A2994 RMK A01 T03280182  RH  042%=      5-min Rain = 0
KHA3 252115Z 15011KT 33/19 A2994 RMK A01 T03280186  RH  043%=      5-min Rain = 0
KHA3 252116Z 14012KT 33/19 A2994 RMK A01 T03300185  RH  042%=      5-min Rain = 0
KHA3 252117Z 13011KT 33/18 A2994 RMK A01 T03300184  RH  042%=      5-min Rain = 0
KHA3 252118Z 14010KT 33/18 A2994 RMK A01 T03270183  RH  042%=      5-min Rain = 0
KHA3 252119Z 14009KT 33/19 A2994 RMK A01 T03260185  RH  043%=      5-min Rain = 0
KHA3 252120Z 14008KT 33/19 A2994 RMK A01 T03280187  RH  043%=      5-min Rain = 0
KHA3 252121Z 17013KT 33/19 A2993 RMK A01 T03310187  RH  043%=      5-min Rain = 0
KHA3 252122Z 17013KT 33/19 A2993 RMK A01 T03310185  RH  042%=      5-min Rain = 0
KHA3 252123Z 16012KT 33/19 A2993 RMK A01 T03300187  RH  043%=      5-min Rain = 0
KHA3 252124Z 15013KT 33/18 A2993 RMK A01 T03300184  RH  042%=      5-min Rain = 0
KHA3 252125Z 16011KT 33/19 A2993 RMK A01 T03290185  RH  043%=      5-min Rain = 0
KHA3 252126Z 14012KT 33/18 A2993 RMK A01 T03300184  RH  042%=      5-min Rain = 0
KHA3 252127Z 14014KT 33/18 A2993 RMK A01 T03290182  RH  042%=      5-min Rain = 0
KHA3 252128Z 15013KT 33/18 A2993 RMK A01 T03280183  RH  042%=      5-min Rain = 0
KHA3 252129Z 15013KT 33/18 A2993 RMK A01 T03280182  RH  042%=      5-min Rain = 0
KHA3 252130Z 14010KT 33/18 A2993 RMK A01 T03280184  RH  043%=      5-min Rain = 0
KHA3 252131Z 14012KT 33/18 A2993 RMK A01 T03290182  RH  042%=      5-min Rain = 0
KHA3 252132Z 15010KT 33/18 A2993 RMK A01 T03290182  RH  042%=      5-min Rain = 0
KHA3 252133Z 15013KT 33/18 A2993 RMK A01 T03290184  RH  042%=      5-min Rain = 0
KHA3 252134Z 16012KT 33/18 A2993 RMK A01 T03310180  RH  041%=      5-min Rain = 0
KHA3 252135Z 16012KT 33/19 A2993 RMK A01 T03320186  RH  042%=      5-min Rain = 0
KHA3 252136Z 16013KT 34/18 A2993 RMK A01 T03350181  RH  040%=      5-min Rain = 0
KHA3 252137Z 17013KT 33/18 A2993 RMK A01 T03330182  RH  041%=      5-min Rain = 0
KHA3 252138Z 16015KT 33/18 A2993 RMK A01 T03330180  RH  040%=      5-min Rain = 0
KHA3 252139Z 15013KT 33/18 A2993 RMK A01 T03320176  RH  040%=      5-min Rain = 0
KHA3 252140Z 14012KT 33/18 A2993 RMK A01 T03310177  RH  040%=      5-min Rain = 0
KHA3 252141Z 16014KT 33/18 A2993 RMK A01 T03300177  RH  040%=      5-min Rain = 0
KHA3 252142Z 17013KT 33/18 A2993 RMK A01 T03300177  RH  040%=      5-min Rain = 0
KHA3 252143Z 15011KT 33/18 A2993 RMK A01 T03310181  RH  041%=      5-min Rain = 0
KHA3 252144Z 15011KT 33/18 A2992 RMK A01 T03320178  RH  040%=      5-min Rain = 0
KHA3 252145Z 16011G16KT 33/18 A2993 RMK A01 T03320182  RH  041%=      5-min Rain = 0
KHA3 252146Z 17015KT 33/18 A2992 RMK A01 T03330179  RH  040%=      5-min Rain = 0
KHA3 252147Z 16013KT 33/18 A2992 RMK A01 T03330177  RH  040%=      5-min Rain = 0
KHA3 252148Z 17012G18KT 33/18 A2992 RMK A01 T03310179  RH  040%=      5-min Rain = 0
KHA3 252149Z 15016KT 33/18 A2992 RMK A01 T03320179  RH  040%=      5-min Rain = 0
KHA3 252150Z 15014KT 33/18 A2992 RMK A01 T03310180  RH  041%=      5-min Rain = 0
KHA3 252151Z 15013KT 33/18 A2992 RMK A01 T03300180  RH  041%=      5-min Rain = 0
KHA3 252152Z 16010KT 33/18 A2992 RMK A01 T03300184  RH  042%=      5-min Rain = 0
KHA3 252153Z 15012KT 33/18 A2992 RMK A01 T03330183  RH  041%=      5-min Rain = 0
KHA3 252154Z 14012KT 33/18 A2992 RMK A01 T03340177  RH  039%=      5-min Rain = 0
KHA3 252155Z 14013KT 33/18 A2992 RMK A01 T03330179  RH  040%=      5-min Rain = 0
KHA3 252156Z 14012KT 33/18 A2992 RMK A01 T03320177  RH  040%=      5-min Rain = 0
KHA3 252157Z 15010KT 33/18 A2992 RMK A01 T03320184  RH  041%=      5-min Rain = 0
KHA3 252158Z 15009KT 33/18 A2992 RMK A01 T03340179  RH  040%=      5-min Rain = 0
KHA3 252159Z 16010KT 33/18 A2992 RMK A01 T03340184  RH  041%=      5-min Rain = 0
KHA3 252200Z 17013KT 34/18 A2992 RMK A01 T03350183  RH  041%=      5-min Rain = 0
KHA3 252201Z 16011KT 34/18 A2992 RMK A01 T03370181  RH  040%=      5-min Rain = 0
KHA3 252202Z 18014KT 34/18 A2992 RMK A01 T03360181  RH  040%=      5-min Rain = 0
KHA3 252203Z 17012KT 34/18 A2992 RMK A01 T03350179  RH  040%=      5-min Rain = 0
KHA3 252204Z 18011KT 34/18 A2992 RMK A01 T03350181  RH  040%=      5-min Rain = 0
KHA3 252205Z 18013KT 34/18 A2992 RMK A01 T03350179  RH  040%=      5-min Rain = 0
KHA3 252206Z 17014KT 34/18 A2992 RMK A01 T03360177  RH  039%=      5-min Rain = 0
KHA3 252207Z 16012KT 34/18 A2992 RMK A01 T03360180  RH  040%=      5-min Rain = 0
KHA3 252208Z 15012KT 34/18 A2992 RMK A01 T03360181  RH  040%=      5-min Rain = 0
KHA3 252209Z 15011KT 34/18 A2992 RMK A01 T03350179  RH  040%=      5-min Rain = 0
KHA3 252210Z 16010KT 33/18 A2992 RMK A01 T03340181  RH  040%=      5-min Rain = 0
KHA3 252211Z 16014KT 33/18 A2992 RMK A01 T03340179  RH  040%=      5-min Rain = 0
KHA3 252212Z 17017KT 33/18 A2992 RMK A01 T03330177  RH  040%=      5-min Rain = 0
KHA3 252213Z 15013KT 33/18 A2992 RMK A01 T03340181  RH  040%=      5-min Rain = 0
KHA3 252214Z 17016KT 34/18 A2992 RMK A01 T03350180  RH  040%=      5-min Rain = 0
KHA3 252215Z 16013KT 33/18 A2992 RMK A01 T03340175  RH  039%=      5-min Rain = 0
KHA3 252216Z 17015KT 33/18 A2992 RMK A01 T03320176  RH  039%=      5-min Rain = 0
KHA3 252217Z 15012KT 33/18 A2992 RMK A01 T03320177  RH  040%=      5-min Rain = 0
KHA3 252218Z 16011KT 33/18 A2992 RMK A01 T03330182  RH  041%=      5-min Rain = 0
KHA3 252219Z 17013KT 34/18 A2992 RMK A01 T03350180  RH  040%=      5-min Rain = 0
KHA3 252220Z 15015G20KT 34/18 A2992 RMK A01 T03360180  RH  040%=      5-min Rain = 0
KHA3 252221Z 14015KT 34/18 A2992 RMK A01 T03350177  RH  039%=      5-min Rain = 0
KHA3 252222Z 15015KT 33/18 A2992 RMK A01 T03330175  RH  039%=      5-min Rain = 0
KHA3 252223Z 15015KT 33/18 A2992 RMK A01 T03310175  RH  039%=      5-min Rain = 0
KHA3 252224Z 15012KT 33/18 A2992 RMK A01 T03310175  RH  039%=      5-min Rain = 0
KHA3 252225Z 15017KT 33/17 A2992 RMK A01 T03310174  RH  039%=      5-min Rain = 0
KHA3 252226Z 15016KT 33/17 A2992 RMK A01 T03310167  RH  038%=      5-min Rain = 0
KHA3 252227Z 16014KT 33/17 A2992 RMK A01 T03310170  RH  038%=      5-min Rain = 0
KHA3 252228Z 15011KT 33/18 A2992 RMK A01 T03320175  RH  039%=      5-min Rain = 0
KHA3 252229Z 15013KT 33/18 A2992 RMK A01 T03340178  RH  040%=      5-min Rain = 0
KHA3 252230Z 14013KT 33/18 A2992 RMK A01 T03340177  RH  039%=      5-min Rain = 0
KHA3 252231Z 15012KT 33/18 A2992 RMK A01 T03330177  RH  039%=      5-min Rain = 0
KHA3 252232Z 16015KT 33/17 A2992 RMK A01 T03330173  RH  039%=      5-min Rain = 0
KHA3 252233Z 16014KT 33/17 A2992 RMK A01 T03320171  RH  038%=      5-min Rain = 0
KHA3 252234Z 16012KT 33/18 A2992 RMK A01 T03320175  RH  039%=      5-min Rain = 0
KHA3 252235Z 16015KT 33/18 A2992 RMK A01 T03330175  RH  039%=      5-min Rain = 0
KHA3 252236Z 17012KT 33/18 A2992 RMK A01 T03330177  RH  040%=      5-min Rain = 0
KHA3 252237Z 17015KT 33/18 A2992 RMK A01 T03330176  RH  039%=      5-min Rain = 0
KHA3 252238Z 16016G21KT 33/17 A2992 RMK A01 T03340174  RH  039%=      5-min Rain = 0
KHA3 252239Z 15014KT 33/17 A2992 RMK A01 T03340171  RH  038%=      5-min Rain = 0
KHA3 252240Z 16013KT 33/17 A2992 RMK A01 T03330171  RH  038%=      5-min Rain = 0
KHA3 252241Z 15014KT 33/17 A2992 RMK A01 T03330172  RH  038%=      5-min Rain = 0
KHA3 252242Z 15015KT 33/17 A2992 RMK A01 T03320165  RH  037%=      5-min Rain = 0
KHA3 252243Z 15012KT 33/17 A2992 RMK A01 T03310169  RH  038%=      5-min Rain = 0
KHA3 252244Z 16014KT 33/17 A2992 RMK A01 T03320169  RH  038%=      5-min Rain = 0
KHA3 252245Z 15015KT 33/16 A2992 RMK A01 T03330163  RH  036%=      5-min Rain = 0
KHA3 252246Z 15013G18KT 33/17 A2992 RMK A01 T03330165  RH  037%=      5-min Rain = 0
KHA3 252247Z 14014KT 33/16 A2992 RMK A01 T03330162  RH  036%=      5-min Rain = 0
KHA3 252248Z 15014KT 33/16 A2992 RMK A01 T03320163  RH  036%=      5-min Rain = 0
KHA3 252249Z 15013KT 33/17 A2992 RMK A01 T03320166  RH  037%=      5-min Rain = 0
KHA3 252250Z 14012KT 33/17 A2992 RMK A01 T03310166  RH  037%=      5-min Rain = 0
KHA3 252251Z 14011KT 33/17 A2991 RMK A01 T03310169  RH  038%=      5-min Rain = 0
KHA3 252252Z 13010KT 33/17 A2991 RMK A01 T03310172  RH  039%=      5-min Rain = 0
KHA3 252253Z 13011KT 33/17 A2991 RMK A01 T03320169  RH  038%=      5-min Rain = 0
KHA3 252254Z 16012KT 33/17 A2991 RMK A01 T03310173  RH  039%=      5-min Rain = 0
KHA3 252255Z 16012KT 33/17 A2991 RMK A01 T03320172  RH  038%=      5-min Rain = 0
KHA3 252256Z 15015G20KT 33/17 A2991 RMK A01 T03330174  RH  039%=      5-min Rain = 0
KHA3 252257Z 16017KT 33/17 A2991 RMK A01 T03330172  RH  038%=      5-min Rain = 0
KHA3 252258Z 17016KT 33/17 A2991 RMK A01 T03320172  RH  038%=      5-min Rain = 0
KHA3 252259Z 15015KT 33/17 A2991 RMK A01 T03310173  RH  039%=      5-min Rain = 0
KHA3 252300Z 14015KT 33/17 A2991 RMK A01 T03310174  RH  039%=      5-min Rain = 0
KHA3 252301Z 15015KT 33/17 A2991 RMK A01 T03320171  RH  038%=      5-min Rain = 0
KHA3 252302Z 15015KT 33/17 A2991 RMK A01 T03310171  RH  038%=      5-min Rain = 0
KHA3 252303Z 15015KT 33/17 A2991 RMK A01 T03310171  RH  038%=      5-min Rain = 0
KHA3 252304Z 16015KT 33/17 A2991 RMK A01 T03310170  RH  038%=      5-min Rain = 0
KHA3 252305Z 16015KT 33/17 A2991 RMK A01 T03310169  RH  038%=      5-min Rain = 0
KHA3 252306Z 16013KT 33/17 A2991 RMK A01 T03310172  RH  039%=      5-min Rain = 0
KHA3 252307Z 14013G19KT 33/18 A2991 RMK A01 T03310175  RH  039%=      5-min Rain = 0
KHA3 252308Z 13014G19KT 33/17 A2991 RMK A01 T03320172  RH  039%=      5-min Rain = 0
KHA3 252309Z 15010KT 33/17 A2991 RMK A01 T03310173  RH  039%=      5-min Rain = 0
KHA3 252310Z 16014KT 33/17 A2991 RMK A01 T03310173  RH  039%=      5-min Rain = 0
KHA3 252311Z 16015KT 33/17 A2991 RMK A01 T03310172  RH  039%=      5-min Rain = 0
KHA3 252312Z 17012KT 33/17 A2991 RMK A01 T03310172  RH  039%=      5-min Rain = 0
KHA3 252313Z 17016KT 33/17 A2991 RMK A01 T03310173  RH  039%=      5-min Rain = 0
KHA3 252314Z 16015KT 33/17 A2991 RMK A01 T03310169  RH  038%=      5-min Rain = 0
KHA3 252315Z 16012KT 33/17 A2991 RMK A01 T03310174  RH  039%=      5-min Rain = 0
KHA3 252316Z 15011KT 33/18 A2991 RMK A01 T03320175  RH  039%=      5-min Rain = 0
KHA3 252317Z 16013G18KT 33/18 A2991 RMK A01 T03330175  RH  039%=      5-min Rain = 0
KHA3 252318Z 16013KT 33/17 A2991 RMK A01 T03330172  RH  038%=      5-min Rain = 0
KHA3 252319Z 16013KT 33/17 A2991 RMK A01 T03320170  RH  038%=      5-min Rain = 0
KHA3 252320Z 16015KT 33/17 A2991 RMK A01 T03310174  RH  039%=      5-min Rain = 0
KHA3 252321Z 15017KT 33/17 A2991 RMK A01 T03310171  RH  038%=      5-min Rain = 0
KHA3 252322Z 14014KT 33/17 A2991 RMK A01 T03300169  RH  038%=      5-min Rain = 0
KHA3 252323Z 15016KT 33/17 A2991 RMK A01 T03290170  RH  039%=      5-min Rain = 0
KHA3 252324Z 15014G19KT 33/17 A2991 RMK A01 T03290170  RH  039%=      5-min Rain = 0
KHA3 252325Z 15016KT 33/17 A299 RMK A01 T03290169  RH  038%=      5-min Rain = 0
KHA3 252326Z 15016KT 33/17 A299 RMK A01 T03290167  RH  038%=      5-min Rain = 0
KHA3 252327Z 14015KT 33/17 A299 RMK A01 T03290169  RH  039%=      5-min Rain = 0
KHA3 252328Z 14013KT 33/17 A299 RMK A01 T03290168  RH  038%=      5-min Rain = 0
KHA3 252329Z 14013KT 33/17 A299 RMK A01 T03290172  RH  039%=      5-min Rain = 0
KHA3 252330Z 14012KT 33/17 A299 RMK A01 T03280169  RH  039%=      5-min Rain = 0
KHA3 252331Z 14012KT 33/17 A299 RMK A01 T03290172  RH  039%=      5-min Rain = 0
KHA3 252332Z 15012KT 33/17 A299 RMK A01 T03290173  RH  039%=      5-min Rain = 0
KHA3 252333Z 15014KT 33/17 A299 RMK A01 T03300171  RH  039%=      5-min Rain = 0
KHA3 252334Z 14014KT 33/17 A299 RMK A01 T03300170  RH  038%=      5-min Rain = 0
KHA3 252335Z 14013KT 33/17 A299 RMK A01 T03300169  RH  038%=      5-min Rain = 0
KHA3 252336Z 15012KT 33/17 A299 RMK A01 T03290171  RH  039%=      5-min Rain = 0
KHA3 252337Z 13013KT 33/17 A299 RMK A01 T03290173  RH  039%=      5-min Rain = 0
KHA3 252338Z 16010KT 33/17 A299 RMK A01 T03290174  RH  040%=      5-min Rain = 0
KHA3 252339Z 16010KT 33/17 A299 RMK A01 T03300174  RH  040%=      5-min Rain = 0
KHA3 252340Z 15012KT 33/17 A299 RMK A01 T03300174  RH  040%=      5-min Rain = 0
KHA3 252341Z 14012KT 33/17 A299 RMK A01 T03300174  RH  040%=      5-min Rain = 0
KHA3 252342Z 15015KT 33/17 A299 RMK A01 T03290172  RH  039%=      5-min Rain = 0
KHA3 252343Z 14014KT 33/17 A299 RMK A01 T03280174  RH  040%=      5-min Rain = 0
KHA3 252344Z 16014KT 33/17 A299 RMK A01 T03280174  RH  040%=      5-min Rain = 0
KHA3 252345Z 14013KT 33/18 A299 RMK A01 T03280175  RH  040%=      5-min Rain = 0
KHA3 252346Z 15012KT 33/18 A299 RMK A01 T03280178  RH  041%=      5-min Rain = 0
KHA3 252347Z 15013G18KT 33/17 A299 RMK A01 T03280173  RH  040%=      5-min Rain = 0
KHA3 252348Z 14015KT 33/17 A299 RMK A01 T03280174  RH  040%=      5-min Rain = 0
KHA3 252349Z 14013G18KT 33/17 A299 RMK A01 T03280173  RH  040%=      5-min Rain = 0
KHA3 252350Z 14015KT 33/17 A299 RMK A01 T03270171  RH  039%=      5-min Rain = 0
KHA3 252351Z 14013KT 33/17 A2991 RMK A01 T03260171  RH  039%=      5-min Rain = 0
KHA3 252352Z 13014KT 33/17 A2991 RMK A01 T03260170  RH  039%=      5-min Rain = 0
KHA3 252353Z 13012KT 33/17 A2991 RMK A01 T03260170  RH  039%=      5-min Rain = 0
KHA3 252354Z 13011KT 33/17 A2991 RMK A01 T03250170  RH  040%=      5-min Rain = 0
KHA3 252355Z 12011KT 33/17 A2991 RMK A01 T03250173  RH  040%=      5-min Rain = 0
KHA3 252356Z 13012KT 33/17 A2991 RMK A01 T03250171  RH  040%=      5-min Rain = 0
KHA3 252357Z 14012KT 33/17 A2991 RMK A01 T03260170  RH  039%=      5-min Rain = 0
KHA3 252358Z 13011KT 33/17 A2991 RMK A01 T03250170  RH  040%=      5-min Rain = 0
KHA3 252359Z 13012G17KT 33/17 A2991 RMK A01 T03260173  RH  040%=      5-min Rain = 0
KHA3 260000Z 12012KT 33/17 A2991 RMK A01 T03250169  RH  039%=      5-min Rain = 0
KHA3 260001Z 12016KT 33/17 A2991 RMK A01 T03250168  RH  039%=      5-min Rain = 0
KHA3 260002Z 12016KT 32/17 A2991 RMK A01 T03240166  RH  039%=      5-min Rain = 0
KHA3 260003Z 13014KT 32/17 A2991 RMK A01 T03240167  RH  039%=      5-min Rain = 0
KHA3 260004Z 13015KT 32/17 A2991 RMK A01 T03230165  RH  039%=      5-min Rain = 0
KHA3 260005Z 12013KT 32/17 A2991 RMK A01 T03230165  RH  039%=      5-min Rain = 0
KHA3 260006Z 13012KT 32/17 A2991 RMK A01 T03220166  RH  039%=      5-min Rain = 0
KHA3 260007Z 13013KT 32/16 A2991 RMK A01 T03220163  RH  039%=      5-min Rain = 0
KHA3 260008Z 13016KT 32/16 A2991 RMK A01 T03220162  RH  038%=      5-min Rain = 0
KHA3 260009Z 13015KT 32/16 A2991 RMK A01 T03220161  RH  038%=      5-min Rain = 0
KHA3 260010Z 12012KT 32/16 A2992 RMK A01 T03210163  RH  039%=      5-min Rain = 0
KHA3 260011Z 13013KT 32/16 A2992 RMK A01 T03210164  RH  039%=      5-min Rain = 0
KHA3 260012Z 13012KT 32/17 A2992 RMK A01 T03200165  RH  039%=      5-min Rain = 0
KHA3 260013Z 13013KT 32/16 A2992 RMK A01 T03190164  RH  039%=      5-min Rain = 0
KHA3 260014Z 13013KT 32/17 A2992 RMK A01 T03180165  RH  040%=      5-min Rain = 0
KHA3 260015Z 13011KT 32/16 A2992 RMK A01 T03170162  RH  040%=      5-min Rain = 0
KHA3 260016Z 13013KT 32/16 A2992 RMK A01 T03170163  RH  040%=      5-min Rain = 0
KHA3 260017Z 13011KT 32/16 A2992 RMK A01 T03160163  RH  040%=      5-min Rain = 0
KHA3 260018Z 13012KT 32/16 A2992 RMK A01 T03160164  RH  040%=      5-min Rain = 0
KHA3 260019Z 13012KT 32/16 A2992 RMK A01 T03150164  RH  040%=      5-min Rain = 0
KHA3 260020Z 13011KT 31/16 A2992 RMK A01 T03140164  RH  040%=      5-min Rain = 0
KHA3 260021Z 13014KT 31/16 A2992 RMK A01 T03140164  RH  041%=      5-min Rain = 0
KHA3 260022Z 13013KT 31/17 A2992 RMK A01 T03140165  RH  041%=      5-min Rain = 0
KHA3 260023Z 13012KT 31/17 A2992 RMK A01 T03130165  RH  041%=      5-min Rain = 0
KHA3 260024Z 14011KT 31/17 A2992 RMK A01 T03130167  RH  042%=      5-min Rain = 0
KHA3 260025Z 14009KT 31/17 A2992 RMK A01 T03120168  RH  042%=      5-min Rain = 0
KHA3 260026Z 14009KT 31/17 A2992 RMK A01 T03110170  RH  043%=      5-min Rain = 0
KHA3 260027Z 14009KT 31/17 A2992 RMK A01 T03100171  RH  043%=      5-min Rain = 0
KHA3 260028Z 14013KT 31/17 A2992 RMK A01 T03100171  RH  044%=      5-min Rain = 0
KHA3 260029Z 14012G17KT 31/17 A2992 RMK A01 T03100172  RH  044%=      5-min Rain = 0
KHA3 260030Z 14011KT 31/17 A2992 RMK A01 T03100173  RH  044%=      5-min Rain = 0
KHA3 260031Z 15013KT 31/17 A2992 RMK A01 T03090173  RH  044%=      5-min Rain = 0
KHA3 260032Z 14012KT 31/17 A2992 RMK A01 T03090174  RH  044%=      5-min Rain = 0
KHA3 260033Z 14010G15KT 31/18 A2992 RMK A01 T03090175  RH  045%=      5-min Rain = 0
KHA3 260034Z 14011KT 31/18 A2992 RMK A01 T03080175  RH  045%=      5-min Rain = 0
KHA3 260035Z 15012KT 31/18 A2992 RMK A01 T03080176  RH  045%=      5-min Rain = 0
KHA3 260036Z 15011KT 31/18 A2992 RMK A01 T03070176  RH  045%=      5-min Rain = 0
KHA3 260037Z 15010KT 31/18 A2992 RMK A01 T03070177  RH  046%=      5-min Rain = 0
KHA3 260038Z 15011KT 31/18 A2992 RMK A01 T03060177  RH  046%=      5-min Rain = 0
KHA3 260039Z 14009KT 31/18 A2992 RMK A01 T03060177  RH  046%=      5-min Rain = 0
KHA3 260040Z 14010KT 31/18 A2992 RMK A01 T03050178  RH  046%=      5-min Rain = 0
KHA3 260041Z 14009KT 30/18 A2992 RMK A01 T03040178  RH  047%=      5-min Rain = 0
KHA3 260042Z 14009KT 30/18 A2992 RMK A01 T03040178  RH  047%=      5-min Rain = 0
KHA3 260043Z 14008KT 30/18 A2993 RMK A01 T03040178  RH  047%=      5-min Rain = 0
KHA3 260044Z 14007KT 30/18 A2993 RMK A01 T03040178  RH  047%=      5-min Rain = 0
KHA3 260045Z 13009KT 30/18 A2993 RMK A01 T03030178  RH  047%=      5-min Rain = 0
KHA3 260046Z 14007KT 30/18 A2993 RMK A01 T03030176  RH  047%=      5-min Rain = 0
KHA3 260047Z 13008KT 30/18 A2993 RMK A01 T03030176  RH  047%=      5-min Rain = 0
KHA3 260048Z 14009KT 30/18 A2993 RMK A01 T03030175  RH  046%=      5-min Rain = 0
KHA3 260049Z 14009KT 30/17 A2993 RMK A01 T03030173  RH  046%=      5-min Rain = 0
KHA3 260050Z 13009KT 30/17 A2993 RMK A01 T03030173  RH  046%=      5-min Rain = 0
KHA3 260051Z 13009KT 30/17 A2993 RMK A01 T03030173  RH  046%=      5-min Rain = 0
KHA3 260052Z 13009KT 30/17 A2993 RMK A01 T03030173  RH  046%=      5-min Rain = 0
KHA3 260053Z 13009KT 30/17 A2993 RMK A01 T03030174  RH  046%=      5-min Rain = 0
KHA3 260054Z 13007KT 30/18 A2993 RMK A01 T03010175  RH  047%=      5-min Rain = 0
KHA3 260055Z 13009KT 30/18 A2994 RMK A01 T03000175  RH  047%=      5-min Rain = 0
KHA3 260056Z 13009KT 30/18 A2994 RMK A01 T03000175  RH  047%=      5-min Rain = 0
KHA3 260057Z 13009KT 30/18 A2994 RMK A01 T03000175  RH  047%=      5-min Rain = 0
KHA3 260058Z 13009KT 30/17 A2994 RMK A01 T03000174  RH  047%=      5-min Rain = 0
KHA3 260059Z 13009KT 30/18 A2994 RMK A01 T03000175  RH  047%=      5-min Rain = 0
KHA3 260100Z 13009KT 30/18 A2994 RMK A01 T03000175  RH  047%=      5-min Rain = 0
KHA3 260101Z 14010KT 30/18 A2994 RMK A01 T03000176  RH  047%=      5-min Rain = 0
KHA3 260102Z 13010KT 30/18 A2994 RMK A01 T02990175  RH  047%=      5-min Rain = 0
KHA3 260103Z 13009KT 30/18 A2994 RMK A01 T02990176  RH  047%=      5-min Rain = 0
KHA3 260104Z 13009KT 30/18 A2994 RMK A01 T02990177  RH  048%=      5-min Rain = 0
KHA3 260105Z 14009KT 30/18 A2994 RMK A01 T02990177  RH  048%=      5-min Rain = 0
KHA3 260106Z 14009KT 30/18 A2994 RMK A01 T02980177  RH  048%=      5-min Rain = 0
KHA3 260107Z 14008KT 30/18 A2994 RMK A01 T02980177  RH  048%=      5-min Rain = 0
KHA3 260108Z 14008KT 30/18 A2994 RMK A01 T02980178  RH  049%=      5-min Rain = 0
KHA3 260109Z 14007KT 30/18 A2995 RMK A01 T02970178  RH  049%=      5-min Rain = 0
KHA3 260110Z 14008KT 30/18 A2995 RMK A01 T02960178  RH  049%=      5-min Rain = 0
KHA3 260111Z 14008KT 30/18 A2995 RMK A01 T02950178  RH  050%=      5-min Rain = 0
KHA3 260112Z 14007KT 29/18 A2995 RMK A01 T02940179  RH  050%=      5-min Rain = 0
KHA3 260113Z 13007KT 29/18 A2995 RMK A01 T02940179  RH  050%=      5-min Rain = 0
KHA3 260114Z 13006KT 29/18 A2995 RMK A01 T02940179  RH  050%=      5-min Rain = 0
KHA3 260115Z 13007KT 29/18 A2995 RMK A01 T02930179  RH  050%=      5-min Rain = 0
KHA3 260116Z 13007KT 29/18 A2995 RMK A01 T02920180  RH  051%=      5-min Rain = 0
KHA3 260117Z 13007KT 29/18 A2995 RMK A01 T02920179  RH  051%=      5-min Rain = 0
KHA3 260118Z 13007KT 29/18 A2995 RMK A01 T02920180  RH  051%=      5-min Rain = 0
KHA3 260119Z 13007KT 29/18 A2995 RMK A01 T02900180  RH  051%=      5-min Rain = 0
KHA3 260120Z 13007KT 29/18 A2995 RMK A01 T02900179  RH  051%=      5-min Rain = 0
KHA3 260121Z 13008KT 29/18 A2995 RMK A01 T02890180  RH  052%=      5-min Rain = 0
KHA3 260122Z 13008KT 29/18 A2995 RMK A01 T02890179  RH  051%=      5-min Rain = 0
KHA3 260123Z 13008KT 29/18 A2995 RMK A01 T02890179  RH  051%=      5-min Rain = 0
KHA3 260124Z 13007KT 29/18 A2995 RMK A01 T02890179  RH  051%=      5-min Rain = 0
KHA3 260125Z 13007KT 29/18 A2995 RMK A01 T02890180  RH  052%=      5-min Rain = 0
KHA3 260126Z 13007KT 29/18 A2995 RMK A01 T02890180  RH  052%=      5-min Rain = 0
KHA3 260127Z 12007KT 29/18 A2995 RMK A01 T02880181  RH  052%=      5-min Rain = 0
KHA3 260128Z 13007KT 29/18 A2995 RMK A01 T02870180  RH  052%=      5-min Rain = 0
KHA3 260129Z 12007KT 29/18 A2995 RMK A01 T02870180  RH  053%=      5-min Rain = 0
KHA3 260130Z 12007KT 29/18 A2995 RMK A01 T02860181  RH  053%=      5-min Rain = 0
KHA3 260131Z 12006KT 29/18 A2996 RMK A01 T02850180  RH  053%=      5-min Rain = 0
KHA3 260132Z 12007KT 29/18 A2996 RMK A01 T02850181  RH  053%=      5-min Rain = 0
KHA3 260133Z 13007KT 28/18 A2996 RMK A01 T02840181  RH  054%=      5-min Rain = 0
KHA3 260134Z 13007KT 28/18 A2996 RMK A01 T02840181  RH  054%=      5-min Rain = 0
KHA3 260135Z 13007KT 28/18 A2996 RMK A01 T02830181  RH  054%=      5-min Rain = 0
KHA3 260136Z 12007KT 28/18 A2996 RMK A01 T02830181  RH  054%=      5-min Rain = 0
KHA3 260137Z 13007KT 28/18 A2996 RMK A01 T02830181  RH  054%=      5-min Rain = 0
KHA3 260138Z 12006KT 28/18 A2996 RMK A01 T02830181  RH  054%=      5-min Rain = 0
KHA3 260139Z 12007KT 28/18 A2996 RMK A01 T02820182  RH  054%=      5-min Rain = 0
KHA3 260140Z 13006KT 28/18 A2995 RMK A01 T02820181  RH  054%=      5-min Rain = 0
KHA3 260141Z 12007KT 28/18 A2995 RMK A01 T02810181  RH  055%=      5-min Rain = 0
KHA3 260142Z 13006KT 28/18 A2995 RMK A01 T02810181  RH  055%=      5-min Rain = 0
KHA3 260143Z 13007KT 28/18 A2995 RMK A01 T02800181  RH  055%=      5-min Rain = 0
KHA3 260144Z 12007KT 28/18 A2995 RMK A01 T02800181  RH  055%=      5-min Rain = 0
KHA3 260145Z 13007KT 28/18 A2995 RMK A01 T02800181  RH  055%=      5-min Rain = 0
KHA3 260146Z 13007KT 28/18 A2995 RMK A01 T02800181  RH  055%=      5-min Rain = 0
KHA3 260147Z 13007KT 28/18 A2995 RMK A01 T02790180  RH  055%=      5-min Rain = 0
KHA3 260148Z 13007KT 28/18 A2995 RMK A01 T02790180  RH  055%=      5-min Rain = 0
KHA3 260149Z 13007KT 28/18 A2995 RMK A01 T02790181  RH  055%=      5-min Rain = 0
KHA3 260150Z 13007KT 28/18 A2996 RMK A01 T02790181  RH  055%=      5-min Rain = 0
KHA3 260151Z 13007KT 28/18 A2996 RMK A01 T02790181  RH  055%=      5-min Rain = 0
KHA3 260152Z 12006KT 28/18 A2996 RMK A01 T02790181  RH  055%=      5-min Rain = 0
KHA3 260153Z 12007KT 28/18 A2996 RMK A01 T02790182  RH  055%=      5-min Rain = 0
KHA3 260154Z 12006KT 28/18 A2996 RMK A01 T02790181  RH  055%=      5-min Rain = 0
KHA3 260155Z 12006KT 28/18 A2997 RMK A01 T02780181  RH  056%=      5-min Rain = 0
KHA3 260156Z 12006KT 28/18 A2997 RMK A01 T02780181  RH  056%=      5-min Rain = 0
KHA3 260157Z 12006KT 28/18 A2997 RMK A01 T02780182  RH  056%=      5-min Rain = 0
KHA3 260158Z 12006KT 28/18 A2997 RMK A01 T02770182  RH  056%=      5-min Rain = 0
KHA3 260159Z 12005KT 28/18 A2997 RMK A01 T02770182  RH  056%=      5-min Rain = 0
KHA3 260200Z 12006KT 28/18 A2997 RMK A01 T02760182  RH  056%=      5-min Rain = 0
KHA3 260201Z 12006KT 28/18 A2997 RMK A01 T02760182  RH  056%=      5-min Rain = 0
KHA3 260202Z 12005KT 28/18 A2997 RMK A01 T02760182  RH  056%=      5-min Rain = 0
KHA3 260203Z 11005KT 28/18 A2997 RMK A01 T02760182  RH  057%=      5-min Rain = 0
KHA3 260204Z 11005KT 28/18 A2998 RMK A01 T02760182  RH  057%=      5-min Rain = 0
KHA3 260205Z 11005KT 28/18 A2998 RMK A01 T02750182  RH  057%=      5-min Rain = 0
KHA3 260206Z 11005KT 28/18 A2998 RMK A01 T02750182  RH  057%=      5-min Rain = 0
KHA3 260207Z 11004KT 27/18 A2998 RMK A01 T02740183  RH  057%=      5-min Rain = 0
KHA3 260208Z 10004KT 27/18 A2998 RMK A01 T02740183  RH  058%=      5-min Rain = 0
KHA3 260209Z 10004KT 27/18 A2998 RMK A01 T02730183  RH  058%=      5-min Rain = 0
KHA3 260210Z 10004KT 27/18 A2998 RMK A01 T02720183  RH  058%=      5-min Rain = 0
KHA3 260211Z 10004KT 27/18 A2998 RMK A01 T02710183  RH  059%=      5-min Rain = 0
KHA3 260212Z 09004KT 27/18 A2998 RMK A01 T02700183  RH  059%=      5-min Rain = 0
KHA3 260213Z 09004KT 27/18 A2999 RMK A01 T02700183  RH  059%=      5-min Rain = 0
KHA3 260214Z 09004KT 27/18 A2999 RMK A01 T02700182  RH  059%=      5-min Rain = 0
KHA3 260215Z 09004KT 27/18 A2999 RMK A01 T02710182  RH  058%=      5-min Rain = 0
KHA3 260216Z 07003KT 27/18 A2999 RMK A01 T02710182  RH  058%=      5-min Rain = 0
KHA3 260217Z 06003KT 27/18 A2999 RMK A01 T02710181  RH  058%=      5-min Rain = 0
KHA3 260218Z 05003KT 27/18 A2999 RMK A01 T02710182  RH  058%=      5-min Rain = 0
KHA3 260219Z 03003KT 27/18 A30 RMK A01 T02710183  RH  059%=      5-min Rain = 0
KHA3 260220Z 01004KT 27/19 A30 RMK A01 T02700185  RH  060%=      5-min Rain = 0
KHA3 260221Z 01004KT 27/19 A30 RMK A01 T02670185  RH  061%=      5-min Rain = 0
KHA3 260222Z 00004KT 27/19 A30 RMK A01 T02650186  RH  062%=      5-min Rain = 0
KHA3 260223Z 00005KT 26/19 A3001 RMK A01 T02630187  RH  063%=      5-min Rain = 0
KHA3 260224Z 36006KT 26/19 A3001 RMK A01 T02610187  RH  064%=      5-min Rain = 0
KHA3 260225Z 35007KT 26/19 A3001 RMK A01 T02600189  RH  065%=      5-min Rain = 0
KHA3 260226Z 34008KT 26/19 A3002 RMK A01 T02590190  RH  066%=      5-min Rain = 0
KHA3 260227Z 34008KT 26/19 A3002 RMK A01 T02570189  RH  066%=      5-min Rain = 0
KHA3 260228Z 33009KT 26/19 A3002 RMK A01 T02560189  RH  066%=      5-min Rain = 0
KHA3 260229Z 33008KT 26/19 A3002 RMK A01 T02560188  RH  066%=      5-min Rain = 0
KHA3 260230Z 33008KT 26/19 A3003 RMK A01 T02560189  RH  066%=      5-min Rain = 0
KHA3 260231Z 33008KT 26/19 A3003 RMK A01 T02560188  RH  066%=      5-min Rain = 0
KHA3 260232Z 33007KT 26/19 A3003 RMK A01 T02560187  RH  066%=      5-min Rain = 0
KHA3 260233Z 33007KT 26/19 A3003 RMK A01 T02560187  RH  066%=      5-min Rain = 0
KHA3 260234Z 33007KT 26/19 A3003 RMK A01 T02570187  RH  065%=      5-min Rain = 0
KHA3 260235Z 33007KT 26/19 A3003 RMK A01 T02570187  RH  065%=      5-min Rain = 0
KHA3 260236Z 33007KT 26/19 A3003 RMK A01 T02580187  RH  065%=      5-min Rain = 0
KHA3 260237Z 33007KT 26/19 A3003 RMK A01 T02580187  RH  065%=      5-min Rain = 0
KHA3 260238Z 34006KT 26/19 A3003 RMK A01 T02590187  RH  065%=      5-min Rain = 0
KHA3 260239Z 34006KT 26/19 A3003 RMK A01 T02590187  RH  064%=      5-min Rain = 0
KHA3 260240Z 34007KT 26/19 A3003 RMK A01 T02590187  RH  064%=      5-min Rain = 0
KHA3 260241Z 35006KT 26/19 A3003 RMK A01 T02590186  RH  064%=      5-min Rain = 0
KHA3 260242Z 35005KT 26/19 A3003 RMK A01 T02600185  RH  063%=      5-min Rain = 0
KHA3 260243Z 35005KT 26/19 A3003 RMK A01 T02610186  RH  063%=      5-min Rain = 0
KHA3 260244Z 00004KT 26/19 A3003 RMK A01 T02620186  RH  063%=      5-min Rain = 0
KHA3 260245Z 01005KT 26/19 A3004 RMK A01 T02620186  RH  063%=      5-min Rain = 0
KHA3 260246Z 00005KT 26/19 A3004 RMK A01 T02620185  RH  063%=      5-min Rain = 0
KHA3 260247Z 00004KT 26/19 A3004 RMK A01 T02620185  RH  063%=      5-min Rain = 0
KHA3 260248Z 00005KT 26/19 A3004 RMK A01 T02630185  RH  062%=      5-min Rain = 0
KHA3 260249Z 00005KT 26/19 A3004 RMK A01 T02630185  RH  062%=      5-min Rain = 0
KHA3 260250Z 01005KT 26/19 A3004 RMK A01 T02630186  RH  062%=      5-min Rain = 0
KHA3 260251Z 01006KT 26/19 A3004 RMK A01 T02630186  RH  063%=      5-min Rain = 0
KHA3 260252Z 01006KT 26/19 A3004 RMK A01 T02620185  RH  063%=      5-min Rain = 0
KHA3 260253Z 02006KT 26/19 A3004 RMK A01 T02620185  RH  062%=      5-min Rain = 0
KHA3 260254Z 02005KT 26/18 A3004 RMK A01 T02620184  RH  062%=      5-min Rain = 0
KHA3 260255Z 02006KT 26/18 A3004 RMK A01 T02620184  RH  062%=      5-min Rain = 0
KHA3 260256Z 02006KT 26/18 A3004 RMK A01 T02620184  RH  062%=      5-min Rain = 0
KHA3 260257Z 02006KT 26/18 A3004 RMK A01 T02620184  RH  062%=      5-min Rain = 0
KHA3 260258Z 02008KT 26/19 A3005 RMK A01 T02620185  RH  062%=      5-min Rain = 0
KHA3 260259Z 01007KT 26/18 A3005 RMK A01 T02620183  RH  061%=      5-min Rain = 0
KHA3 260300Z 02007KT 26/18 A3005 RMK A01 T02640182  RH  061%=      5-min Rain = 0
KHA3 260301Z 03006KT 27/18 A3005 RMK A01 T02650182  RH  060%=      5-min Rain = 0
KHA3 260302Z 03006KT 27/18 A3005 RMK A01 T02660182  RH  060%=      5-min Rain = 0
KHA3 260303Z 02006KT 27/18 A3005 RMK A01 T02680182  RH  059%=      5-min Rain = 0
KHA3 260304Z 02007KT 27/18 A3005 RMK A01 T02680183  RH  060%=      5-min Rain = 0
KHA3 260305Z 02007KT 27/18 A3005 RMK A01 T02680183  RH  060%=      5-min Rain = 0
KHA3 260306Z 03007KT 27/18 A3006 RMK A01 T02670183  RH  060%=      5-min Rain = 0
KHA3 260307Z 02007KT 27/18 A3006 RMK A01 T02670183  RH  060%=      5-min Rain = 0
KHA3 260308Z 02007KT 27/18 A3006 RMK A01 T02670183  RH  060%=      5-min Rain = 0
KHA3 260309Z 01009KT 27/18 A3006 RMK A01 T02670182  RH  060%=      5-min Rain = 0
KHA3 260310Z 36010KT 27/18 A3006 RMK A01 T02680180  RH  059%=      5-min Rain = 0
KHA3 260311Z 00011KT 27/18 A3006 RMK A01 T02690179  RH  058%=      5-min Rain = 0
KHA3 260312Z 01011KT 27/18 A3006 RMK A01 T02700177  RH  057%=      5-min Rain = 0
KHA3 260313Z 02011KT 27/18 A3006 RMK A01 T02700176  RH  056%=      5-min Rain = 0
KHA3 260314Z 03013KT 27/17 A3006 RMK A01 T02710169  RH  054%=      5-min Rain = 0
KHA3 260315Z 03013KT 27/16 A3006 RMK A01 T02710163  RH  052%=      5-min Rain = 0
KHA3 260316Z 04011KT 27/16 A3006 RMK A01 T02710158  RH  050%=      5-min Rain = 0
KHA3 260317Z 04012G17KT 27/16 A3006 RMK A01 T02700156  RH  050%=      5-min Rain = 0
KHA3 260318Z 03013KT 27/16 A3006 RMK A01 T02700155  RH  049%=      5-min Rain = 0
KHA3 260319Z 03013KT 27/16 A3006 RMK A01 T02700155  RH  049%=      5-min Rain = 0
KHA3 260320Z 03012KT 27/16 A3006 RMK A01 T02690155  RH  049%=      5-min Rain = 0
KHA3 260321Z 03011KT 27/16 A3006 RMK A01 T02690155  RH  049%=      5-min Rain = 0
KHA3 260322Z 03010KT 27/15 A3006 RMK A01 T02690154  RH  049%=      5-min Rain = 0
KHA3 260323Z 03010KT 27/16 A3006 RMK A01 T02690155  RH  050%=      5-min Rain = 0
KHA3 260324Z 03010KT 27/16 A3006 RMK A01 T02680155  RH  050%=      5-min Rain = 0
KHA3 260325Z 03010KT 27/16 A3006 RMK A01 T02670156  RH  050%=      5-min Rain = 0
KHA3 260326Z 03009KT 27/15 A3007 RMK A01 T02660154  RH  050%=      5-min Rain = 0
KHA3 260327Z 02009KT 27/15 A3007 RMK A01 T02650153  RH  050%=      5-min Rain = 0
KHA3 260328Z 02011KT 27/15 A3007 RMK A01 T02650149  RH  049%=      5-min Rain = 0
KHA3 260329Z 02009KT 27/15 A3007 RMK A01 T02660146  RH  048%=      5-min Rain = 0
KHA3 260330Z 02009KT 27/15 A3007 RMK A01 T02660146  RH  048%=      5-min Rain = 0
KHA3 260331Z 03011KT 27/14 A3007 RMK A01 T02660144  RH  047%=      5-min Rain = 0
KHA3 260332Z 02011KT 27/14 A3007 RMK A01 T02660142  RH  047%=      5-min Rain = 0
KHA3 260333Z 02009KT 27/14 A3007 RMK A01 T02650141  RH  046%=      5-min Rain = 0
KHA3 260334Z 03008KT 27/14 A3007 RMK A01 T02650142  RH  047%=      5-min Rain = 0
KHA3 260335Z 03008KT 26/14 A3007 RMK A01 T02640142  RH  047%=      5-min Rain = 0
KHA3 260336Z 01012KT 26/14 A3007 RMK A01 T02630142  RH  047%=      5-min Rain = 0
KHA3 260337Z 02012KT 26/14 A3007 RMK A01 T02620141  RH  047%=      5-min Rain = 0
KHA3 260338Z 02012KT 26/14 A3007 RMK A01 T02620142  RH  047%=      5-min Rain = 0
KHA3 260339Z 01012KT 26/14 A3007 RMK A01 T02620142  RH  047%=      5-min Rain = 0
KHA3 260340Z 01011KT 26/14 A3007 RMK A01 T02620143  RH  048%=      5-min Rain = 0
KHA3 260341Z 02014G19KT 26/14 A3007 RMK A01 T02610143  RH  048%=      5-min Rain = 0
KHA3 260342Z 02015KT 26/14 A3007 RMK A01 T02610142  RH  048%=      5-min Rain = 0
KHA3 260343Z 02013KT 26/14 A3007 RMK A01 T02610143  RH  048%=      5-min Rain = 0
KHA3 260344Z 02011KT 26/14 A3007 RMK A01 T02600143  RH  048%=      5-min Rain = 0
KHA3 260345Z 02011KT 26/14 A3007 RMK A01 T02600143  RH  049%=      5-min Rain = 0
KHA3 260346Z 03008KT 26/14 A3007 RMK A01 T02600143  RH  049%=      5-min Rain = 0
KHA3 260347Z 02008KT 26/14 A3007 RMK A01 T02590144  RH  049%=      5-min Rain = 0
KHA3 260348Z 02010KT 26/14 A3007 RMK A01 T02580143  RH  049%=      5-min Rain = 0
KHA3 260349Z 01009KT 26/14 A3007 RMK A01 T02580144  RH  049%=      5-min Rain = 0
KHA3 260350Z 01010KT 26/14 A3008 RMK A01 T02570144  RH  050%=      5-min Rain = 0
KHA3 260351Z 01008KT 26/15 A3008 RMK A01 T02570145  RH  050%=      5-min Rain = 0
KHA3 260352Z 01008KT 26/14 A3008 RMK A01 T02560144  RH  050%=      5-min Rain = 0
KHA3 260353Z 01008KT 26/15 A3008 RMK A01 T02560145  RH  050%=      5-min Rain = 0
KHA3 260354Z 01007KT 26/15 A3008 RMK A01 T02550146  RH  051%=      5-min Rain = 0
KHA3 260355Z 02007KT 25/15 A3008 RMK A01 T02540146  RH  051%=      5-min Rain = 0
KHA3 260356Z 02007KT 25/15 A3008 RMK A01 T02530146  RH  051%=      5-min Rain = 0
KHA3 260357Z 03007KT 25/15 A3008 RMK A01 T02530146  RH  051%=      5-min Rain = 0
KHA3 260358Z 03008KT 25/15 A3008 RMK A01 T02520145  RH  051%=      5-min Rain = 0
KHA3 260359Z 03009KT 25/15 A3008 RMK A01 T02520145  RH  051%=      5-min Rain = 0
KHA3 260400Z 03008KT 25/15 A3007 RMK A01 T02520145  RH  051%=      5-min Rain = 0
KHA3 260401Z 04008KT 25/15 A3007 RMK A01 T02520145  RH  051%=      5-min Rain = 0
KHA3 260402Z 04006KT 25/15 A3007 RMK A01 T02520146  RH  052%=      5-min Rain = 0
KHA3 260403Z 04006KT 25/15 A3007 RMK A01 T02520146  RH  052%=      5-min Rain = 0
KHA3 260404Z 05006KT 25/15 A3007 RMK A01 T02510146  RH  052%=      5-min Rain = 0
KHA3 260405Z 04008KT 25/15 A3007 RMK A01 T02500147  RH  053%=      5-min Rain = 0
KHA3 260406Z 05007KT 25/15 A3007 RMK A01 T02500146  RH  052%=      5-min Rain = 0
KHA3 260407Z 04009KT 25/14 A3007 RMK A01 T02500144  RH  052%=      5-min Rain = 0
KHA3 260408Z 04008KT 25/14 A3007 RMK A01 T02510144  RH  051%=      5-min Rain = 0
KHA3 260409Z 05006KT 25/15 A3007 RMK A01 T02520146  RH  052%=      5-min Rain = 0
KHA3 260410Z 05007KT 25/15 A3007 RMK A01 T02510146  RH  052%=      5-min Rain = 0
KHA3 260411Z 04006KT 25/15 A3007 RMK A01 T02490147  RH  053%=      5-min Rain = 0
KHA3 260412Z 05006KT 25/15 A3007 RMK A01 T02480147  RH  053%=      5-min Rain = 0
KHA3 260413Z 05006KT 25/15 A3007 RMK A01 T02470147  RH  054%=      5-min Rain = 0
KHA3 260414Z 06005KT 25/15 A3007 RMK A01 T02460148  RH  054%=      5-min Rain = 0
KHA3 260415Z 06006KT 25/15 A3007 RMK A01 T02460148  RH  055%=      5-min Rain = 0
KHA3 260416Z 06005KT 25/15 A3007 RMK A01 T02450148  RH  055%=      5-min Rain = 0
KHA3 260417Z 04006KT 25/15 A3007 RMK A01 T02450148  RH  055%=      5-min Rain = 0
KHA3 260418Z 04008KT 25/15 A3007 RMK A01 T02450146  RH  054%=      5-min Rain = 0
KHA3 260419Z 04007KT 25/15 A3007 RMK A01 T02460147  RH  054%=      5-min Rain = 0
KHA3 260420Z 04007KT 25/15 A3007 RMK A01 T02460147  RH  054%=      5-min Rain = 0
KHA3 260421Z 05007KT 25/15 A3007 RMK A01 T02460148  RH  054%=      5-min Rain = 0
KHA3 260422Z 05006KT 25/15 A3007 RMK A01 T02460147  RH  054%=      5-min Rain = 0
KHA3 260423Z 06006KT 25/15 A3007 RMK A01 T02450147  RH  054%=      5-min Rain = 0
KHA3 260424Z 07006KT 25/15 A3007 RMK A01 T02450148  RH  055%=      5-min Rain = 0
KHA3 260425Z 07007KT 24/15 A3007 RMK A01 T02440146  RH  054%=      5-min Rain = 0
KHA3 260426Z 08006KT 25/15 A3007 RMK A01 T02450145  RH  054%=      5-min Rain = 0
KHA3 260427Z 07005KT 25/15 A3007 RMK A01 T02450146  RH  054%=      5-min Rain = 0
KHA3 260428Z 08006KT 25/15 A3007 RMK A01 T02450146  RH  054%=      5-min Rain = 0
KHA3 260429Z 09006KT 25/15 A3007 RMK A01 T02450147  RH  054%=      5-min Rain = 0
KHA3 260430Z 09006KT 24/15 A3007 RMK A01 T02440147  RH  054%=      5-min Rain = 0
KHA3 260431Z 10006KT 24/15 A3006 RMK A01 T02440147  RH  055%=      5-min Rain = 0
KHA3 260432Z 11006KT 24/15 A3006 RMK A01 T02430148  RH  055%=      5-min Rain = 0
KHA3 260433Z 11006KT 24/15 A3006 RMK A01 T02420149  RH  056%=      5-min Rain = 0
KHA3 260434Z 12006KT 24/15 A3006 RMK A01 T02410149  RH  056%=      5-min Rain = 0
KHA3 260435Z 12005KT 24/15 A3006 RMK A01 T02410148  RH  056%=      5-min Rain = 0
KHA3 260436Z 12005KT 24/15 A3006 RMK A01 T02410147  RH  056%=      5-min Rain = 0
KHA3 260437Z 12005KT 24/15 A3006 RMK A01 T02410148  RH  056%=      5-min Rain = 0
KHA3 260438Z 13005KT 24/15 A3006 RMK A01 T02420148  RH  056%=      5-min Rain = 0
KHA3 260439Z 13005KT 24/15 A3006 RMK A01 T02420147  RH  056%=      5-min Rain = 0
KHA3 260440Z 13005KT 24/15 A3007 RMK A01 T02420147  RH  055%=      5-min Rain = 0
KHA3 260441Z 13005KT 24/15 A3007 RMK A01 T02420147  RH  055%=      5-min Rain = 0
KHA3 260442Z 12005KT 24/15 A3007 RMK A01 T02430147  RH  055%=      5-min Rain = 0
KHA3 260443Z 11005KT 24/15 A3007 RMK A01 T02430147  RH  055%=      5-min Rain = 0
KHA3 260444Z 11005KT 24/15 A3007 RMK A01 T02430148  RH  055%=      5-min Rain = 0
KHA3 260445Z 11006KT 24/15 A3007 RMK A01 T02430148  RH  056%=      5-min Rain = 0
KHA3 260446Z 11006KT 24/15 A3006 RMK A01 T02420147  RH  055%=      5-min Rain = 0
KHA3 260447Z 11005KT 24/15 A3006 RMK A01 T02430148  RH  056%=      5-min Rain = 0
KHA3 260448Z 11006KT 24/15 A3006 RMK A01 T02420148  RH  056%=      5-min Rain = 0
KHA3 260449Z 11006KT 24/15 A3006 RMK A01 T02420148  RH  056%=      5-min Rain = 0
KHA3 260450Z 11006KT 24/15 A3006 RMK A01 T02410148  RH  056%=      5-min Rain = 0
KHA3 260451Z 11006KT 24/15 A3006 RMK A01 T02410148  RH  056%=      5-min Rain = 0
KHA3 260452Z 11006KT 24/15 A3006 RMK A01 T02410147  RH  056%=      5-min Rain = 0
KHA3 260453Z 12007KT 24/15 A3006 RMK A01 T02400147  RH  056%=      5-min Rain = 0
KHA3 260454Z 11007KT 24/15 A3005 RMK A01 T02400147  RH  056%=      5-min Rain = 0
KHA3 260455Z 12007KT 24/15 A3005 RMK A01 T02400147  RH  056%=      5-min Rain = 0
KHA3 260456Z 12007KT 24/15 A3005 RMK A01 T02410146  RH  056%=      5-min Rain = 0
KHA3 260457Z 13008KT 24/15 A3005 RMK A01 T02410146  RH  055%=      5-min Rain = 0
KHA3 260458Z 13008KT 24/14 A3005 RMK A01 T02410144  RH  054%=      5-min Rain = 0
KHA3 260459Z 13008KT 24/14 A3004 RMK A01 T02430143  RH  054%=      5-min Rain = 0

Page generated in 0.0817 seconds.